2016 Cux-Wetter.de -Die Nutzung der Wetterdaten nur mit ausdrcklicher Genehmigung
Wetterdaten: Mittwoch, 21.12.2016
Datum Zeit Temp. A. Feuchte A. Luftdruck Regen Wind Richtung Richtung Sonnenschein Solar Taupunkt Windchill Windben
21.12.2016 00:00 0,4 C 92 % 1020,8 hPa 0,0 l/m 9,9 km/h (2 Bft) O-SO 116 0 min 0 W/m -0,7 C -2,9 C 17,7 km/h (3 Bft)
21.12.2016 00:03 0,5 C 92 % 1020,7 hPa 0,0 l/m 9,8 km/h (2 Bft) S 186 0 min 0 W/m -0,6 C -2,7 C 19,3 km/h (3 Bft)
21.12.2016 00:06 0,4 C 92 % 1020,7 hPa 0,0 l/m 10,0 km/h (2 Bft) S-SO 161 0 min 0 W/m -0,7 C -3,0 C 19,3 km/h (3 Bft)
21.12.2016 00:09 0,4 C 93 % 1020,7 hPa 0,0 l/m 5,8 km/h (2 Bft) SO 141 0 min 0 W/m -0,6 C 0,4 C 9,7 km/h (2 Bft)
21.12.2016 00:12 0,4 C 92 % 1020,8 hPa 0,0 l/m 13,5 km/h (3 Bft) S-SO 162 0 min 0 W/m -0,7 C -5,6 C 22,5 km/h (4 Bft)
21.12.2016 00:15 0,4 C 92 % 1020,8 hPa 0,0 l/m 12,1 km/h (2 Bft) S-SO 160 0 min 0 W/m -0,7 C -4,6 C 24,1 km/h (4 Bft)
21.12.2016 00:18 0,4 C 93 % 1020,7 hPa 0,0 l/m 11,4 km/h (2 Bft) S-SO 149 0 min 0 W/m -0,6 C -4,1 C 19,3 km/h (3 Bft)
21.12.2016 00:21 0,4 C 93 % 1020,6 hPa 0,0 l/m 13,1 km/h (3 Bft) O-SO 114 0 min 0 W/m -0,6 C -5,3 C 20,9 km/h (4 Bft)
21.12.2016 00:24 0,3 C 93 % 1020,7 hPa 0,0 l/m 9,7 km/h (2 Bft) S-SO 164 0 min 0 W/m -0,7 C -2,9 C 17,7 km/h (3 Bft)
21.12.2016 00:27 0,3 C 93 % 1020,7 hPa 0,0 l/m 11,0 km/h (2 Bft) S 186 0 min 0 W/m -0,7 C -3,9 C 24,1 km/h (4 Bft)
21.12.2016 00:30 0,3 C 93 % 1020,7 hPa 0,0 l/m 13,1 km/h (3 Bft) S-SO 160 0 min 0 W/m -0,7 C -5,4 C 22,5 km/h (4 Bft)
21.12.2016 00:33 0,3 C 93 % 1020,7 hPa 0,0 l/m 11,5 km/h (2 Bft) S-SO 156 0 min 0 W/m -0,7 C -4,3 C 24,1 km/h (4 Bft)
21.12.2016 00:36 0,3 C 93 % 1020,8 hPa 0,0 l/m 11,8 km/h (2 Bft) S-SO 156 0 min 0 W/m -0,7 C -4,5 C 17,7 km/h (3 Bft)
21.12.2016 00:39 0,3 C 93 % 1020,9 hPa 0,0 l/m 10,7 km/h (2 Bft) S 182 0 min 0 W/m -0,7 C -3,7 C 19,3 km/h (3 Bft)
21.12.2016 00:42 0,3 C 93 % 1021,0 hPa 0,0 l/m 9,3 km/h (2 Bft) S 178 0 min 0 W/m -0,7 C -2,5 C 14,5 km/h (3 Bft)
21.12.2016 00:45 0,3 C 93 % 1020,9 hPa 0,0 l/m 7,2 km/h (2 Bft) S-SO 166 0 min 0 W/m -0,7 C -0,5 C 14,5 km/h (3 Bft)
21.12.2016 00:48 0,3 C 93 % 1020,9 hPa 0,0 l/m 9,3 km/h (2 Bft) S 182 0 min 0 W/m -0,7 C -2,5 C 17,7 km/h (3 Bft)
21.12.2016 00:51 0,3 C 93 % 1021,0 hPa 0,0 l/m 8,1 km/h (2 Bft) S 188 0 min 0 W/m -0,7 C -1,4 C 16,1 km/h (3 Bft)
21.12.2016 00:54 0,3 C 93 % 1021,1 hPa 0,0 l/m 9,0 km/h (2 Bft) S 188 0 min 0 W/m -0,7 C -2,3 C 19,3 km/h (3 Bft)
21.12.2016 00:57 0,3 C 93 % 1021,2 hPa 0,0 l/m 7,6 km/h (2 Bft) S 172 0 min 0 W/m -0,7 C -0,9 C 16,1 km/h (3 Bft)
21.12.2016 01:00 0,3 C 93 % 1021,1 hPa 0,0 l/m 13,9 km/h (3 Bft) S-SO 167 0 min 0 W/m -0,7 C -5,9 C 20,9 km/h (4 Bft)
21.12.2016 01:03 0,3 C 93 % 1021,1 hPa 0,0 l/m 10,2 km/h (2 Bft) S-SO 165 0 min 0 W/m -0,7 C -3,3 C 19,3 km/h (3 Bft)
21.12.2016 01:06 0,3 C 93 % 1021,1 hPa 0,0 l/m 9,7 km/h (2 Bft) S 185 0 min 0 W/m -0,7 C -2,9 C 17,7 km/h (3 Bft)
21.12.2016 01:09 0,3 C 93 % 1021,1 hPa 0,0 l/m 9,9 km/h (2 Bft) S-SW 207 0 min 0 W/m -0,7 C -3,0 C 17,7 km/h (3 Bft)
21.12.2016 01:12 0,3 C 93 % 1021,0 hPa 0,0 l/m 11,2 km/h (2 Bft) S-SW 192 0 min 0 W/m -0,7 C -4,1 C 19,3 km/h (3 Bft)
21.12.2016 01:15 0,3 C 93 % 1021,0 hPa 0,0 l/m 10,1 km/h (2 Bft) S 177 0 min 0 W/m -0,7 C -3,2 C 17,7 km/h (3 Bft)
21.12.2016 01:18 0,3 C 93 % 1021,0 hPa 0,0 l/m 8,4 km/h (2 Bft) S 185 0 min 0 W/m -0,7 C -1,7 C 16,1 km/h (3 Bft)
21.12.2016 01:21 0,3 C 93 % 1020,9 hPa 0,0 l/m 9,4 km/h (2 Bft) S 174 0 min 0 W/m -0,7 C -2,6 C 16,1 km/h (3 Bft)
21.12.2016 01:24 0,3 C 93 % 1020,9 hPa 0,0 l/m 8,8 km/h (2 Bft) S 184 0 min 0 W/m -0,7 C -2,1 C 17,7 km/h (3 Bft)
21.12.2016 01:27 0,3 C 93 % 1020,8 hPa 0,0 l/m 8,3 km/h (2 Bft) S 178 0 min 0 W/m -0,7 C -1,6 C 16,1 km/h (3 Bft)
21.12.2016 01:30 0,3 C 93 % 1020,9 hPa 0,0 l/m 8,5 km/h (2 Bft) S 171 0 min 0 W/m -0,7 C -1,8 C 16,1 km/h (3 Bft)
21.12.2016 01:33 0,3 C 93 % 1020,9 hPa 0,0 l/m 9,2 km/h (2 Bft) S-SO 152 0 min 0 W/m -0,7 C -2,4 C 19,3 km/h (3 Bft)
21.12.2016 01:36 0,3 C 93 % 1020,9 hPa 0,0 l/m 10,6 km/h (2 Bft) S-SW 196 0 min 0 W/m -0,7 C -3,6 C 19,3 km/h (3 Bft)
21.12.2016 01:39 0,3 C 93 % 1020,8 hPa 0,0 l/m 9,4 km/h (2 Bft) S-SO 161 0 min 0 W/m -0,7 C -2,6 C 16,1 km/h (3 Bft)
21.12.2016 01:42 0,3 C 93 % 1020,9 hPa 0,0 l/m 8,6 km/h (2 Bft) S 171 0 min 0 W/m -0,7 C -1,9 C 16,1 km/h (3 Bft)
21.12.2016 01:45 0,3 C 93 % 1020,9 hPa 0,0 l/m 8,5 km/h (2 Bft) S 176 0 min 0 W/m -0,7 C -1,8 C 14,5 km/h (3 Bft)
21.12.2016 01:48 0,3 C 93 % 1021,0 hPa 0,0 l/m 9,1 km/h (2 Bft) S 186 0 min 0 W/m -0,7 C -2,4 C 16,1 km/h (3 Bft)
21.12.2016 01:51 0,3 C 93 % 1020,9 hPa 0,0 l/m 7,4 km/h (2 Bft) S 180 0 min 0 W/m -0,7 C -0,7 C 12,9 km/h (3 Bft)
21.12.2016 01:54 0,3 C 93 % 1020,9 hPa 0,0 l/m 6,6 km/h (2 Bft) S 178 0 min 0 W/m -0,7 C 0,1 C 14,5 km/h (3 Bft)
21.12.2016 01:57 0,3 C 93 % 1020,9 hPa 0,0 l/m 8,2 km/h (2 Bft) S 182 0 min 0 W/m -0,7 C -1,5 C 17,7 km/h (3 Bft)
21.12.2016 02:00 0,4 C 93 % 1020,9 hPa 0,0 l/m 8,0 km/h (2 Bft) S-SO 163 0 min 0 W/m -0,6 C -1,2 C 14,5 km/h (3 Bft)
21.12.2016 02:03 0,4 C 93 % 1020,8 hPa 0,0 l/m 9,4 km/h (2 Bft) S 176 0 min 0 W/m -0,6 C -2,5 C 20,9 km/h (4 Bft)
21.12.2016 02:06 0,4 C 93 % 1020,8 hPa 0,0 l/m 9,0 km/h (2 Bft) S 175 0 min 0 W/m -0,6 C -2,2 C 19,3 km/h (3 Bft)
21.12.2016 02:09 0,4 C 93 % 1020,7 hPa 0,0 l/m 10,6 km/h (2 Bft) S 171 0 min 0 W/m -0,6 C -3,5 C 19,3 km/h (3 Bft)
21.12.2016 02:12 0,4 C 93 % 1020,8 hPa 0,0 l/m 10,2 km/h (2 Bft) S 176 0 min 0 W/m -0,6 C -3,2 C 19,3 km/h (3 Bft)
21.12.2016 02:15 0,4 C 93 % 1020,9 hPa 0,0 l/m 7,8 km/h (2 Bft) SW 215 0 min 0 W/m -0,6 C -1,0 C 12,9 km/h (3 Bft)
21.12.2016 02:18 0,4 C 93 % 1020,8 hPa 0,0 l/m 8,9 km/h (2 Bft) S-SO 164 0 min 0 W/m -0,6 C -2,1 C 16,1 km/h (3 Bft)
21.12.2016 02:21 0,4 C 93 % 1020,8 hPa 0,0 l/m 8,5 km/h (2 Bft) S 179 0 min 0 W/m -0,6 C -1,7 C 16,1 km/h (3 Bft)
21.12.2016 02:24 0,4 C 93 % 1020,9 hPa 0,0 l/m 7,6 km/h (2 Bft) S 189 0 min 0 W/m -0,6 C -0,8 C 12,9 km/h (3 Bft)
21.12.2016 02:27 0,4 C 93 % 1020,9 hPa 0,0 l/m 6,6 km/h (2 Bft) SO 140 0 min 0 W/m -0,6 C 0,2 C 14,5 km/h (3 Bft)
21.12.2016 02:30 0,4 C 93 % 1020,8 hPa 0,0 l/m 7,3 km/h (2 Bft) S 173 0 min 0 W/m -0,6 C -0,5 C 11,3 km/h (2 Bft)
21.12.2016 02:33 0,4 C 93 % 1021,0 hPa 0,0 l/m 7,1 km/h (2 Bft) S 169 0 min 0 W/m -0,6 C -0,3 C 16,1 km/h (3 Bft)
21.12.2016 02:36 0,4 C 93 % 1021,0 hPa 0,0 l/m 6,1 km/h (2 Bft) S 177 0 min 0 W/m -0,6 C 0,4 C 9,7 km/h (2 Bft)
21.12.2016 02:39 0,3 C 93 % 1021,0 hPa 0,0 l/m 5,9 km/h (2 Bft) S 175 0 min 0 W/m -0,7 C 0,3 C 11,3 km/h (2 Bft)
21.12.2016 02:42 0,3 C 93 % 1021,0 hPa 0,0 l/m 7,2 km/h (2 Bft) S 182 0 min 0 W/m -0,7 C -0,5 C 14,5 km/h (3 Bft)
21.12.2016 02:45 0,3 C 93 % 1021,0 hPa 0,0 l/m 6,3 km/h (2 Bft) S 169 0 min 0 W/m -0,7 C 0,3 C 9,7 km/h (2 Bft)
21.12.2016 02:48 0,2 C 93 % 1021,0 hPa 0,0 l/m 4,6 km/h (1 Bft) S 185 0 min 0 W/m -0,8 C 0,2 C 9,7 km/h (2 Bft)
21.12.2016 02:51 0,2 C 93 % 1021,1 hPa 0,0 l/m 3,7 km/h (1 Bft) S 176 0 min 0 W/m -0,8 C 0,2 C 6,4 km/h (2 Bft)
21.12.2016 02:54 0,1 C 93 % 1021,1 hPa 0,0 l/m 3,6 km/h (1 Bft) S 182 0 min 0 W/m -0,9 C 0,1 C 8,0 km/h (2 Bft)
21.12.2016 02:57 0,1 C 93 % 1021,1 hPa 0,0 l/m 3,4 km/h (1 Bft) S 182 0 min 0 W/m -0,9 C 0,1 C 4,8 km/h (1 Bft)
21.12.2016 03:00 0,1 C 93 % 1020,9 hPa 0,0 l/m 2,3 km/h (1 Bft) S 174 0 min 0 W/m -0,9 C 0,1 C 4,8 km/h (1 Bft)
21.12.2016 03:03 0,0 C 93 % 1020,9 hPa 0,0 l/m 4,0 km/h (1 Bft) S-SO 167 0 min 0 W/m -1,0 C 0,0 C 8,0 km/h (2 Bft)
21.12.2016 03:06 0,0 C 93 % 1021,0 hPa 0,0 l/m 4,0 km/h (1 Bft) SO 137 0 min 0 W/m -1,0 C 0,0 C 6,4 km/h (2 Bft)
21.12.2016 03:09 -0,1 C 93 % 1021,0 hPa 0,0 l/m 3,9 km/h (1 Bft) SO 137 0 min 0 W/m -1,1 C -0,1 C 8,0 km/h (2 Bft)
21.12.2016 03:12 -0,1 C 92 % 1021,0 hPa 0,0 l/m 3,1 km/h (1 Bft) S-SO 162 0 min 0 W/m -1,2 C -0,1 C 9,7 km/h (2 Bft)
21.12.2016 03:15 -0,2 C 92 % 1021,1 hPa 0,0 l/m 4,9 km/h (1 Bft) S-SW 192 0 min 0 W/m -1,3 C -0,2 C 14,5 km/h (3 Bft)
21.12.2016 03:18 -0,2 C 92 % 1021,0 hPa 0,0 l/m 4,7 km/h (1 Bft) S 185 0 min 0 W/m -1,3 C -0,2 C 9,7 km/h (2 Bft)
21.12.2016 03:21 -0,3 C 93 % 1021,1 hPa 0,0 l/m 5,0 km/h (1 Bft) S 170 0 min 0 W/m -1,3 C -0,3 C 8,0 km/h (2 Bft)
21.12.2016 03:24 -0,3 C 93 % 1021,0 hPa 0,0 l/m 5,2 km/h (1 Bft) S 172 0 min 0 W/m -1,3 C -0,3 C 9,7 km/h (2 Bft)
21.12.2016 03:27 -0,3 C 93 % 1021,0 hPa 0,0 l/m 4,2 km/h (1 Bft) S 169 0 min 0 W/m -1,3 C -0,3 C 8,0 km/h (2 Bft)
21.12.2016 03:30 -0,3 C 93 % 1021,1 hPa 0,0 l/m 5,4 km/h (2 Bft) S 170 0 min 0 W/m -1,3 C -0,3 C 9,7 km/h (2 Bft)
21.12.2016 03:33 -0,4 C 93 % 1021,1 hPa 0,0 l/m 4,3 km/h (1 Bft) S 178 0 min 0 W/m -1,4 C -0,4 C 8,0 km/h (2 Bft)
21.12.2016 03:36 -0,4 C 93 % 1021,1 hPa 0,0 l/m 4,9 km/h (1 Bft) S 175 0 min 0 W/m -1,4 C -0,4 C 9,7 km/h (2 Bft)
21.12.2016 03:39 -0,4 C 93 % 1021,1 hPa 0,0 l/m 5,4 km/h (2 Bft) S 175 0 min 0 W/m -1,4 C -0,4 C 9,7 km/h (2 Bft)
21.12.2016 03:42 -0,4 C 93 % 1020,9 hPa 0,0 l/m 5,6 km/h (2 Bft) S-SO 159 0 min 0 W/m -1,4 C -0,4 C 9,7 km/h (2 Bft)
21.12.2016 03:45 -0,5 C 93 % 1021,0 hPa 0,0 l/m 5,2 km/h (1 Bft) S 170 0 min 0 W/m -1,5 C -0,5 C 9,7 km/h (2 Bft)
21.12.2016 03:48 -0,5 C 93 % 1021,0 hPa 0,0 l/m 5,4 km/h (2 Bft) S 182 0 min 0 W/m -1,5 C -0,5 C 9,7 km/h (2 Bft)
21.12.2016 03:51 -0,6 C 93 % 1020,9 hPa 0,0 l/m 4,1 km/h (1 Bft) S 174 0 min 0 W/m -1,6 C -0,6 C 8,0 km/h (2 Bft)
21.12.2016 03:54 -0,6 C 93 % 1021,0 hPa 0,0 l/m 5,2 km/h (1 Bft) S 175 0 min 0 W/m -1,6 C -0,6 C 11,3 km/h (2 Bft)
21.12.2016 03:57 -0,6 C 93 % 1021,0 hPa 0,0 l/m 5,8 km/h (2 Bft) S 187 0 min 0 W/m -1,6 C -0,6 C 14,5 km/h (3 Bft)
21.12.2016 04:00 -0,5 C 93 % 1021,1 hPa 0,0 l/m 7,4 km/h (2 Bft) S-SW 196 0 min 0 W/m -1,5 C -1,6 C 12,9 km/h (3 Bft)
21.12.2016 04:03 -0,5 C 93 % 1021,1 hPa 0,0 l/m 5,6 km/h (2 Bft) S-SO 167 0 min 0 W/m -1,5 C -0,5 C 9,7 km/h (2 Bft)
21.12.2016 04:06 -0,4 C 94 % 1021,1 hPa 0,0 l/m 5,9 km/h (2 Bft) S-SO 166 0 min 0 W/m -1,2 C -0,4 C 9,7 km/h (2 Bft)
21.12.2016 04:09 -0,4 C 94 % 1021,0 hPa 0,0 l/m 5,1 km/h (1 Bft) S 169 0 min 0 W/m -1,2 C -0,4 C 11,3 km/h (2 Bft)
21.12.2016 04:12 -0,4 C 94 % 1021,1 hPa 0,0 l/m 7,8 km/h (2 Bft) S-SW 204 0 min 0 W/m -1,2 C -1,9 C 16,1 km/h (3 Bft)
21.12.2016 04:15 -0,3 C 94 % 1021,1 hPa 0,0 l/m 6,6 km/h (2 Bft) SW 219 0 min 0 W/m -1,1 C -0,5 C 9,7 km/h (2 Bft)
21.12.2016 04:18 -0,3 C 94 % 1021,1 hPa 0,0 l/m 5,7 km/h (2 Bft) S 180 0 min 0 W/m -1,1 C -0,3 C 8,0 km/h (2 Bft)
21.12.2016 04:21 -0,2 C 94 % 1021,1 hPa 0,0 l/m 7,4 km/h (2 Bft) S 174 0 min 0 W/m -1,0 C -1,2 C 12,9 km/h (3 Bft)
21.12.2016 04:24 -0,2 C 94 % 1021,0 hPa 0,0 l/m 6,3 km/h (2 Bft) S-SW 205 0 min 0 W/m -1,0 C -0,2 C 12,9 km/h (3 Bft)
21.12.2016 04:27 -0,2 C 94 % 1021,0 hPa 0,0 l/m 6,2 km/h (2 Bft) S-SW 204 0 min 0 W/m -1,0 C -0,2 C 11,3 km/h (2 Bft)
21.12.2016 04:30 -0,1 C 94 % 1021,0 hPa 0,0 l/m 5,2 km/h (1 Bft) S-SW 211 0 min 0 W/m -0,9 C -0,1 C 9,7 km/h (2 Bft)
21.12.2016 04:33 -0,1 C 94 % 1021,0 hPa 0,0 l/m 8,4 km/h (2 Bft) S 189 0 min 0 W/m -0,9 C -2,1 C 16,1 km/h (3 Bft)
21.12.2016 04:36 0,0 C 94 % 1020,9 hPa 0,0 l/m 8,2 km/h (2 Bft) S 189 0 min 0 W/m -0,8 C -1,8 C 17,7 km/h (3 Bft)
21.12.2016 04:39 0,0 C 95 % 1020,9 hPa 0,0 l/m 7,6 km/h (2 Bft) S-SW 209 0 min 0 W/m -0,7 C -1,2 C 12,9 km/h (3 Bft)
21.12.2016 04:42 0,1 C 94 % 1020,8 hPa 0,0 l/m 7,3 km/h (2 Bft) S-SW 210 0 min 0 W/m -0,7 C -0,8 C 14,5 km/h (3 Bft)
21.12.2016 04:45 0,1 C 95 % 1020,8 hPa 0,0 l/m 9,4 km/h (2 Bft) S-SW 207 0 min 0 W/m -0,6 C -2,8 C 14,5 km/h (3 Bft)
21.12.2016 04:48 0,2 C 95 % 1020,8 hPa 0,0 l/m 5,8 km/h (2 Bft) SW 214 0 min 0 W/m -0,5 C 0,2 C 9,7 km/h (2 Bft)
21.12.2016 04:51 0,2 C 95 % 1020,8 hPa 0,0 l/m 8,7 km/h (2 Bft) SW 227 0 min 0 W/m -0,5 C -2,1 C 14,5 km/h (3 Bft)
21.12.2016 04:54 0,3 C 95 % 1020,7 hPa 0,0 l/m 9,5 km/h (2 Bft) S 174 0 min 0 W/m -0,4 C -2,7 C 16,1 km/h (3 Bft)
21.12.2016 04:57 0,3 C 95 % 1020,8 hPa 0,0 l/m 9,3 km/h (2 Bft) S 189 0 min 0 W/m -0,4 C -2,5 C 14,5 km/h (3 Bft)
21.12.2016 05:00 0,4 C 95 % 1020,7 hPa 0,0 l/m 10,0 km/h (2 Bft) SW 234 0 min 0 W/m -0,3 C -3,0 C 17,7 km/h (3 Bft)
21.12.2016 05:03 0,5 C 95 % 1020,7 hPa 0,0 l/m 15,1 km/h (3 Bft) SW 229 0 min 0 W/m -0,2 C -6,4 C 22,5 km/h (4 Bft)
21.12.2016 05:06 0,6 C 95 % 1020,7 hPa 0,0 l/m 12,8 km/h (3 Bft) S-SW 200 0 min 0 W/m -0,1 C -4,9 C 17,7 km/h (3 Bft)
21.12.2016 05:09 0,6 C 95 % 1020,6 hPa 0,0 l/m 13,7 km/h (3 Bft) S-SW 200 0 min 0 W/m -0,1 C -5,5 C 19,3 km/h (3 Bft)
21.12.2016 05:12 0,7 C 95 % 1020,5 hPa 0,0 l/m 10,8 km/h (2 Bft) S-SW 205 0 min 0 W/m -0,0 C -3,3 C 16,1 km/h (3 Bft)
21.12.2016 05:15 0,7 C 95 % 1020,5 hPa 0,0 l/m 8,9 km/h (2 Bft) S-SW 198 0 min 0 W/m -0,0 C -1,7 C 16,1 km/h (3 Bft)
21.12.2016 05:18 0,7 C 95 % 1020,5 hPa 0,0 l/m 9,5 km/h (2 Bft) SW 215 0 min 0 W/m -0,0 C -2,3 C 14,5 km/h (3 Bft)
21.12.2016 05:21 0,7 C 95 % 1020,6 hPa 0,0 l/m 9,6 km/h (2 Bft) S-SW 199 0 min 0 W/m -0,0 C -2,3 C 16,1 km/h (3 Bft)
21.12.2016 05:24 0,7 C 95 % 1020,6 hPa 0,0 l/m 9,8 km/h (2 Bft) SW 217 0 min 0 W/m -0,0 C -2,5 C 17,7 km/h (3 Bft)
21.12.2016 05:27 0,7 C 95 % 1020,5 hPa 0,0 l/m 11,1 km/h (2 Bft) S-SW 207 0 min 0 W/m -0,0 C -3,5 C 17,7 km/h (3 Bft)
21.12.2016 05:30 0,7 C 95 % 1020,5 hPa 0,0 l/m 10,5 km/h (2 Bft) SW 217 0 min 0 W/m -0,0 C -3,1 C 16,1 km/h (3 Bft)
21.12.2016 05:33 0,7 C 95 % 1020,5 hPa 0,0 l/m 7,8 km/h (2 Bft) SW 215 0 min 0 W/m -0,0 C -0,7 C 12,9 km/h (3 Bft)
21.12.2016 05:36 0,7 C 95 % 1020,5 hPa 0,0 l/m 7,7 km/h (2 Bft) SW 221 0 min 0 W/m -0,0 C -0,6 C 16,1 km/h (3 Bft)
21.12.2016 05:39 0,7 C 95 % 1020,5 hPa 0,0 l/m 7,0 km/h (2 Bft) S 191 0 min 0 W/m -0,0 C 0,1 C 12,9 km/h (3 Bft)
21.12.2016 05:42 0,7 C 95 % 1020,6 hPa 0,0 l/m 8,8 km/h (2 Bft) S 186 0 min 0 W/m -0,0 C -1,7 C 12,9 km/h (3 Bft)
21.12.2016 05:45 0,8 C 95 % 1020,7 hPa 0,0 l/m 8,4 km/h (2 Bft) S-SW 203 0 min 0 W/m 0,1 C -1,2 C 14,5 km/h (3 Bft)
21.12.2016 05:48 0,8 C 95 % 1020,8 hPa 0,0 l/m 8,7 km/h (2 Bft) S 182 0 min 0 W/m 0,1 C -1,5 C 17,7 km/h (3 Bft)
21.12.2016 05:51 0,8 C 95 % 1020,8 hPa 0,0 l/m 9,0 km/h (2 Bft) SW 230 0 min 0 W/m 0,1 C -1,7 C 14,5 km/h (3 Bft)
21.12.2016 05:54 0,8 C 95 % 1020,8 hPa 0,0 l/m 6,9 km/h (2 Bft) S-SO 163 0 min 0 W/m 0,1 C 0,3 C 14,5 km/h (3 Bft)
21.12.2016 05:57 0,8 C 95 % 1020,9 hPa 0,0 l/m 6,9 km/h (2 Bft) S-SW 200 0 min 0 W/m 0,1 C 0,3 C 11,3 km/h (2 Bft)
21.12.2016 06:00 0,8 C 95 % 1020,8 hPa 0,0 l/m 7,2 km/h (2 Bft) S-SO 153 0 min 0 W/m 0,1 C -0,0 C 12,9 km/h (3 Bft)
21.12.2016 06:03 0,8 C 95 % 1020,7 hPa 0,0 l/m 7,8 km/h (2 Bft) S 184 0 min 0 W/m 0,1 C -0,6 C 12,9 km/h (3 Bft)
21.12.2016 06:06 0,8 C 95 % 1020,8 hPa 0,0 l/m 7,5 km/h (2 Bft) O-SO 121 0 min 0 W/m 0,1 C -0,3 C 12,9 km/h (3 Bft)
21.12.2016 06:09 0,8 C 95 % 1020,8 hPa 0,0 l/m 8,1 km/h (2 Bft) SW 221 0 min 0 W/m 0,1 C -0,9 C 14,5 km/h (3 Bft)
21.12.2016 06:12 0,8 C 95 % 1020,7 hPa 0,0 l/m 10,4 km/h (2 Bft) S 175 0 min 0 W/m 0,1 C -2,9 C 17,7 km/h (3 Bft)
21.12.2016 06:15 0,8 C 95 % 1020,7 hPa 0,0 l/m 8,3 km/h (2 Bft) SW 228 0 min 0 W/m 0,1 C -1,1 C 16,1 km/h (3 Bft)
21.12.2016 06:18 0,8 C 95 % 1020,7 hPa 0,0 l/m 7,4 km/h (2 Bft) S-SO 160 0 min 0 W/m 0,1 C -0,2 C 17,7 km/h (3 Bft)
21.12.2016 06:21 0,8 C 95 % 1020,6 hPa 0,0 l/m 10,2 km/h (2 Bft) S 190 0 min 0 W/m 0,1 C -2,7 C 19,3 km/h (3 Bft)
21.12.2016 06:24 0,8 C 95 % 1020,5 hPa 0,0 l/m 7,0 km/h (2 Bft) S 178 0 min 0 W/m 0,1 C 0,2 C 11,3 km/h (2 Bft)
21.12.2016 06:27 0,8 C 95 % 1020,6 hPa 0,0 l/m 6,8 km/h (2 Bft) SO 128 0 min 0 W/m 0,1 C 0,4 C 16,1 km/h (3 Bft)
21.12.2016 06:30 0,8 C 95 % 1020,7 hPa 0,0 l/m 8,9 km/h (2 Bft) S-SW 194 0 min 0 W/m 0,1 C -1,6 C 17,7 km/h (3 Bft)
21.12.2016 06:33 0,8 C 95 % 1020,7 hPa 0,0 l/m 8,2 km/h (2 Bft) S-SO 155 0 min 0 W/m 0,1 C -1,0 C 16,1 km/h (3 Bft)
21.12.2016 06:36 0,9 C 95 % 1020,6 hPa 0,0 l/m 9,3 km/h (2 Bft) S-SW 194 0 min 0 W/m 0,2 C -1,9 C 16,1 km/h (3 Bft)
21.12.2016 06:39 0,9 C 95 % 1020,6 hPa 0,0 l/m 9,3 km/h (2 Bft) S-SW 204 0 min 0 W/m 0,2 C -1,9 C 16,1 km/h (3 Bft)
21.12.2016 06:42 0,8 C 95 % 1020,5 hPa 0,0 l/m 10,5 km/h (2 Bft) S-SO 151 0 min 0 W/m 0,1 C -3,0 C 17,7 km/h (3 Bft)
21.12.2016 06:45 0,9 C 95 % 1020,5 hPa 0,0 l/m 10,3 km/h (2 Bft) S-SO 166 0 min 0 W/m 0,2 C -2,7 C 20,9 km/h (4 Bft)
21.12.2016 06:48 0,9 C 95 % 1020,5 hPa 0,0 l/m 10,0 km/h (2 Bft) SO 140 0 min 0 W/m 0,2 C -2,5 C 19,3 km/h (3 Bft)
21.12.2016 06:51 0,9 C 95 % 1020,4 hPa 0,0 l/m 10,3 km/h (2 Bft) S 187 0 min 0 W/m 0,2 C -2,7 C 19,3 km/h (3 Bft)
21.12.2016 06:54 0,8 C 95 % 1020,4 hPa 0,0 l/m 11,7 km/h (2 Bft) S 183 0 min 0 W/m 0,1 C -3,9 C 22,5 km/h (4 Bft)
21.12.2016 06:57 0,9 C 95 % 1020,4 hPa 0,0 l/m 9,7 km/h (2 Bft) S-SO 154 0 min 0 W/m 0,2 C -2,2 C 19,3 km/h (3 Bft)
21.12.2016 07:00 0,9 C 95 % 1020,5 hPa 0,0 l/m 11,9 km/h (2 Bft) S 175 0 min 0 W/m 0,2 C -3,9 C 22,5 km/h (4 Bft)
21.12.2016 07:03 0,9 C 95 % 1020,5 hPa 0,0 l/m 10,4 km/h (2 Bft) S 169 0 min 0 W/m 0,2 C -2,8 C 17,7 km/h (3 Bft)
21.12.2016 07:06 0,9 C 95 % 1020,4 hPa 0,0 l/m 8,6 km/h (2 Bft) S 179 0 min 0 W/m 0,2 C -1,3 C 14,5 km/h (3 Bft)
21.12.2016 07:09 1,0 C 95 % 1020,5 hPa 0,0 l/m 10,8 km/h (2 Bft) S 171 0 min 0 W/m 0,3 C -3,0 C 20,9 km/h (4 Bft)
21.12.2016 07:12 1,0 C 95 % 1020,5 hPa 0,0 l/m 13,1 km/h (3 Bft) S-SW 208 0 min 0 W/m 0,3 C -4,6 C 20,9 km/h (4 Bft)
21.12.2016 07:15 1,1 C 95 % 1020,5 hPa 0,0 l/m 13,5 km/h (3 Bft) S-SO 155 0 min 0 W/m 0,4 C -4,7 C 22,5 km/h (4 Bft)
21.12.2016 07:18 1,1 C 95 % 1020,5 hPa 0,0 l/m 13,9 km/h (3 Bft) SO 139 0 min 0 W/m 0,4 C -5,0 C 25,7 km/h (4 Bft)
21.12.2016 07:21 1,2 C 96 % 1020,4 hPa 0,0 l/m 12,8 km/h (3 Bft) S-SW 192 0 min 0 W/m 0,6 C -4,2 C 27,4 km/h (5 Bft)
21.12.2016 07:24 1,2 C 96 % 1020,3 hPa 0,0 l/m 11,8 km/h (2 Bft) S 170 0 min 0 W/m 0,6 C -3,5 C 19,3 km/h (3 Bft)
21.12.2016 07:27 1,2 C 96 % 1020,3 hPa 0,0 l/m 13,2 km/h (3 Bft) S-SO 148 0 min 0 W/m 0,6 C -4,4 C 24,1 km/h (4 Bft)
21.12.2016 07:30 1,3 C 96 % 1020,3 hPa 0,0 l/m 12,5 km/h (2 Bft) S 178 0 min 0 W/m 0,7 C -3,8 C 19,3 km/h (3 Bft)
21.12.2016 07:33 1,3 C 96 % 1020,4 hPa 0,0 l/m 14,1 km/h (3 Bft) SW 226 0 min 0 W/m 0,7 C -4,9 C 30,6 km/h (5 Bft)
21.12.2016 07:36 1,4 C 96 % 1020,4 hPa 0,0 l/m 15,8 km/h (3 Bft) SW 229 0 min 0 W/m 0,8 C -5,7 C 25,7 km/h (4 Bft)
21.12.2016 07:39 1,4 C 96 % 1020,6 hPa 0,0 l/m 16,6 km/h (3 Bft) S-SW 198 0 min 0 W/m 0,8 C -6,2 C 24,1 km/h (4 Bft)
21.12.2016 07:42 1,4 C 96 % 1020,5 hPa 0,0 l/m 14,2 km/h (3 Bft) S-SO 161 0 min 0 W/m 0,8 C -4,8 C 25,7 km/h (4 Bft)
21.12.2016 07:45 1,5 C 96 % 1020,5 hPa 0,0 l/m 16,2 km/h (3 Bft) S 181 0 min 0 W/m 0,9 C -5,8 C 25,7 km/h (4 Bft)
21.12.2016 07:48 1,5 C 96 % 1020,4 hPa 0,0 l/m 17,4 km/h (3 Bft) S 188 0 min 0 W/m 0,9 C -6,5 C 27,4 km/h (5 Bft)
21.12.2016 07:51 1,5 C 96 % 1020,3 hPa 0,0 l/m 16,8 km/h (3 Bft) S-SO 166 0 min 0 W/m 0,9 C -6,2 C 32,2 km/h (5 Bft)
21.12.2016 07:54 1,5 C 96 % 1020,5 hPa 0,0 l/m 13,1 km/h (3 Bft) S 190 0 min 0 W/m 0,9 C -4,0 C 27,4 km/h (5 Bft)
21.12.2016 07:57 1,6 C 96 % 1020,4 hPa 0,0 l/m 13,6 km/h (3 Bft) S-SW 213 0 min 0 W/m 1,0 C -4,2 C 22,5 km/h (4 Bft)
21.12.2016 08:00 1,6 C 96 % 1020,4 hPa 0,0 l/m 15,9 km/h (3 Bft) S 186 0 min 0 W/m 1,0 C -5,5 C 25,7 km/h (4 Bft)
21.12.2016 08:03 1,6 C 96 % 1020,5 hPa 0,0 l/m 16,0 km/h (3 Bft) S 191 0 min 0 W/m 1,0 C -5,6 C 24,1 km/h (4 Bft)
21.12.2016 08:06 1,6 C 96 % 1020,5 hPa 0,0 l/m 13,2 km/h (3 Bft) S-SW 211 0 min 0 W/m 1,0 C -4,0 C 25,7 km/h (4 Bft)
21.12.2016 08:09 1,7 C 96 % 1020,4 hPa 0,0 l/m 14,9 km/h (3 Bft) S-SW 195 0 min 0 W/m 1,1 C -4,9 C 27,4 km/h (5 Bft)
21.12.2016 08:12 1,7 C 96 % 1020,5 hPa 0,0 l/m 15,5 km/h (3 Bft) S-SW 209 0 min 0 W/m 1,1 C -5,2 C 29,0 km/h (5 Bft)
21.12.2016 08:15 1,7 C 96 % 1020,5 hPa 0,0 l/m 15,1 km/h (3 Bft) S-SW 200 0 min 0 W/m 1,1 C -5,0 C 24,1 km/h (4 Bft)
21.12.2016 08:18 1,7 C 96 % 1020,5 hPa 0,0 l/m 11,7 km/h (2 Bft) SW 221 0 min 0 W/m 1,1 C -2,8 C 19,3 km/h (3 Bft)
21.12.2016 08:21 1,7 C 96 % 1020,6 hPa 0,0 l/m 13,9 km/h (3 Bft) S-SO 167 0 min 0 W/m 1,1 C -4,3 C 25,7 km/h (4 Bft)
21.12.2016 08:24 1,7 C 96 % 1020,8 hPa 0,0 l/m 15,6 km/h (3 Bft) W-SW 238 0 min 0 W/m 1,1 C -5,3 C 33,8 km/h (5 Bft)
21.12.2016 08:27 1,7 C 96 % 1020,9 hPa 0,0 l/m 16,0 km/h (3 Bft) SW 236 0 min 0 W/m 1,1 C -5,5 C 25,7 km/h (4 Bft)
21.12.2016 08:30 1,7 C 96 % 1020,9 hPa 0,0 l/m 15,7 km/h (3 Bft) SW 234 0 min 0 W/m 1,1 C -5,3 C 27,4 km/h (5 Bft)
21.12.2016 08:33 1,7 C 96 % 1020,9 hPa 0,0 l/m 12,0 km/h (2 Bft) SW 227 0 min 0 W/m 1,1 C -3,0 C 22,5 km/h (4 Bft)
21.12.2016 08:36 1,7 C 96 % 1020,9 hPa 0,0 l/m 14,2 km/h (3 Bft) SW 223 0 min 0 W/m 1,1 C -4,5 C 25,7 km/h (4 Bft)
21.12.2016 08:39 1,7 C 96 % 1020,8 hPa 0,0 l/m 12,3 km/h (2 Bft) S-SW 206 0 min 0 W/m 1,1 C -3,2 C 20,9 km/h (4 Bft)
21.12.2016 08:42 1,7 C 96 % 1020,9 hPa 0,0 l/m 15,5 km/h (3 Bft) S-SW 193 0 min 0 W/m 1,1 C -5,2 C 24,1 km/h (4 Bft)
21.12.2016 08:45 1,8 C 96 % 1021,0 hPa 0,0 l/m 14,7 km/h (3 Bft) W-SW 242 0 min 0 W/m 1,2 C -4,6 C 20,9 km/h (4 Bft)
21.12.2016 08:48 1,8 C 96 % 1021,1 hPa 0,0 l/m 16,4 km/h (3 Bft) S-SW 201 0 min 0 W/m 1,2 C -5,6 C 24,1 km/h (4 Bft)
21.12.2016 08:51 1,9 C 96 % 1020,9 hPa 0,0 l/m 17,8 km/h (3 Bft) W-SW 251 0 min 5 W/m 1,3 C -6,2 C 30,6 km/h (5 Bft)
21.12.2016 08:54 1,9 C 96 % 1021,0 hPa 0,0 l/m 15,7 km/h (3 Bft) SW 223 0 min 7 W/m 1,3 C -5,1 C 24,1 km/h (4 Bft)
21.12.2016 08:57 1,9 C 96 % 1020,9 hPa 0,0 l/m 16,9 km/h (3 Bft) S-SW 205 3 min 11 W/m 1,3 C -5,7 C 27,4 km/h (5 Bft)
21.12.2016 09:00 2,0 C 96 % 1020,8 hPa 0,0 l/m 19,1 km/h (3 Bft) S 169 3 min 14 W/m 1,4 C -6,6 C 29,0 km/h (5 Bft)
21.12.2016 09:03 2,0 C 96 % 1020,9 hPa 0,0 l/m 13,8 km/h (3 Bft) S-SW 201 3 min 16 W/m 1,4 C -3,9 C 22,5 km/h (4 Bft)
21.12.2016 09:06 2,0 C 96 % 1020,9 hPa 0,0 l/m 17,6 km/h (3 Bft) W-SW 238 3 min 18 W/m 1,4 C -5,9 C 30,6 km/h (5 Bft)
21.12.2016 09:09 2,0 C 95 % 1021,0 hPa 0,0 l/m 16,2 km/h (3 Bft) SW 232 0 min 19 W/m 1,3 C -5,2 C 24,1 km/h (4 Bft)
21.12.2016 09:12 2,0 C 95 % 1021,0 hPa 0,0 l/m 17,3 km/h (3 Bft) S-SW 213 0 min 19 W/m 1,3 C -5,8 C 29,0 km/h (5 Bft)
21.12.2016 09:15 2,1 C 95 % 1020,9 hPa 0,0 l/m 15,7 km/h (3 Bft) S-SW 206 0 min 25 W/m 1,4 C -4,8 C 27,4 km/h (5 Bft)
21.12.2016 09:18 2,1 C 95 % 1021,0 hPa 0,0 l/m 14,0 km/h (3 Bft) S 173 0 min 25 W/m 1,4 C -3,9 C 22,5 km/h (4 Bft)
21.12.2016 09:21 2,1 C 95 % 1021,0 hPa 0,0 l/m 13,1 km/h (3 Bft) S 184 0 min 25 W/m 1,4 C -3,3 C 24,1 km/h (4 Bft)
21.12.2016 09:24 2,1 C 95 % 1021,0 hPa 0,0 l/m 16,3 km/h (3 Bft) S-SW 205 0 min 28 W/m 1,4 C -5,1 C 32,2 km/h (5 Bft)
21.12.2016 09:27 2,1 C 95 % 1021,0 hPa 0,0 l/m 16,9 km/h (3 Bft) SW 215 0 min 30 W/m 1,4 C -5,5 C 27,4 km/h (5 Bft)
21.12.2016 09:30 2,1 C 95 % 1020,9 hPa 0,0 l/m 14,7 km/h (3 Bft) S-SW 198 0 min 30 W/m 1,4 C -4,3 C 24,1 km/h (4 Bft)
21.12.2016 09:33 2,1 C 95 % 1021,1 hPa 0,0 l/m 12,3 km/h (2 Bft) SW 223 0 min 28 W/m 1,4 C -2,8 C 25,7 km/h (4 Bft)
21.12.2016 09:36 2,0 C 95 % 1021,0 hPa 0,0 l/m 11,5 km/h (2 Bft) S-SW 202 0 min 28 W/m 1,3 C -2,4 C 20,9 km/h (4 Bft)
21.12.2016 09:39 2,0 C 95 % 1021,1 hPa 0,0 l/m 12,1 km/h (2 Bft) SW 216 0 min 26 W/m 1,3 C -2,8 C 24,1 km/h (4 Bft)
21.12.2016 09:42 2,0 C 95 % 1021,1 hPa 0,0 l/m 15,3 km/h (3 Bft) S 183 0 min 32 W/m 1,3 C -4,7 C 24,1 km/h (4 Bft)
21.12.2016 09:45 1,9 C 95 % 1021,0 hPa 0,0 l/m 13,6 km/h (3 Bft) SW 216 0 min 30 W/m 1,2 C -3,9 C 24,1 km/h (4 Bft)
21.12.2016 09:48 1,9 C 95 % 1021,1 hPa 0,0 l/m 12,8 km/h (3 Bft) S-SW 199 0 min 28 W/m 1,2 C -3,3 C 20,9 km/h (4 Bft)
21.12.2016 09:51 1,9 C 95 % 1021,1 hPa 0,0 l/m 13,3 km/h (3 Bft) S-SW 207 0 min 26 W/m 1,2 C -3,7 C 20,9 km/h (4 Bft)
21.12.2016 09:54 1,9 C 95 % 1021,0 hPa 0,0 l/m 13,2 km/h (3 Bft) SW 224 0 min 28 W/m 1,2 C -3,6 C 27,4 km/h (5 Bft)
21.12.2016 09:57 1,9 C 95 % 1021,0 hPa 0,0 l/m 13,4 km/h (3 Bft) S-SW 211 0 min 30 W/m 1,2 C -3,7 C 30,6 km/h (5 Bft)
21.12.2016 10:00 1,8 C 95 % 1021,1 hPa 0,0 l/m 11,0 km/h (2 Bft) S-SW 196 0 min 35 W/m 1,1 C -2,2 C 17,7 km/h (3 Bft)
21.12.2016 10:03 1,8 C 95 % 1021,0 hPa 0,0 l/m 10,9 km/h (2 Bft) S 181 0 min 39 W/m 1,1 C -2,1 C 17,7 km/h (3 Bft)
21.12.2016 10:06 1,8 C 95 % 1021,0 hPa 0,0 l/m 11,5 km/h (2 Bft) W-SW 258 0 min 46 W/m 1,1 C -2,6 C 17,7 km/h (3 Bft)
21.12.2016 10:09 1,8 C 95 % 1021,1 hPa 0,0 l/m 15,1 km/h (3 Bft) S-SW 213 0 min 49 W/m 1,1 C -4,9 C 24,1 km/h (4 Bft)
21.12.2016 10:12 1,9 C 95 % 1021,1 hPa 0,0 l/m 13,2 km/h (3 Bft) SW 221 0 min 49 W/m 1,2 C -3,6 C 24,1 km/h (4 Bft)
21.12.2016 10:15 1,9 C 94 % 1021,1 hPa 0,0 l/m 15,7 km/h (3 Bft) S 182 0 min 42 W/m 1,0 C -5,1 C 25,7 km/h (4 Bft)
21.12.2016 10:18 1,9 C 94 % 1021,1 hPa 0,0 l/m 14,5 km/h (3 Bft) W-SW 238 0 min 53 W/m 1,0 C -4,4 C 25,7 km/h (4 Bft)
21.12.2016 10:21 2,0 C 94 % 1021,1 hPa 0,0 l/m 12,3 km/h (2 Bft) S 178 0 min 54 W/m 1,1 C -2,9 C 20,9 km/h (4 Bft)
21.12.2016 10:24 2,0 C 94 % 1020,9 hPa 0,0 l/m 15,9 km/h (3 Bft) S-SW 192 0 min 53 W/m 1,1 C -5,1 C 27,4 km/h (5 Bft)
21.12.2016 10:27 2,1 C 94 % 1021,0 hPa 0,0 l/m 15,0 km/h (3 Bft) SW 229 0 min 54 W/m 1,2 C -4,4 C 29,0 km/h (5 Bft)
21.12.2016 10:30 2,1 C 94 % 1020,9 hPa 0,0 l/m 15,3 km/h (3 Bft) S 169 0 min 58 W/m 1,2 C -4,6 C 25,7 km/h (4 Bft)
21.12.2016 10:33 2,1 C 94 % 1020,9 hPa 0,0 l/m 13,8 km/h (3 Bft) S 174 0 min 58 W/m 1,2 C -3,7 C 24,1 km/h (4 Bft)
21.12.2016 10:36 2,2 C 93 % 1020,9 hPa 0,0 l/m 17,2 km/h (3 Bft) S-SW 202 0 min 54 W/m 1,2 C -5,5 C 30,6 km/h (5 Bft)
21.12.2016 10:39 2,2 C 93 % 1020,8 hPa 0,0 l/m 16,5 km/h (3 Bft) S-SW 204 0 min 53 W/m 1,2 C -5,1 C 29,0 km/h (5 Bft)
21.12.2016 10:42 2,2 C 93 % 1020,8 hPa 0,0 l/m 15,4 km/h (3 Bft) SW 217 0 min 54 W/m 1,2 C -4,5 C 27,4 km/h (5 Bft)
21.12.2016 10:45 2,2 C 93 % 1021,0 hPa 0,0 l/m 17,0 km/h (3 Bft) SW 236 0 min 63 W/m 1,2 C -5,4 C 30,6 km/h (5 Bft)
21.12.2016 10:48 2,3 C 93 % 1021,0 hPa 0,0 l/m 13,6 km/h (3 Bft) SW 225 0 min 54 W/m 1,3 C -3,4 C 27,4 km/h (5 Bft)
21.12.2016 10:51 2,3 C 93 % 1021,0 hPa 0,0 l/m 16,8 km/h (3 Bft) SW 225 0 min 47 W/m 1,3 C -5,2 C 27,4 km/h (5 Bft)
21.12.2016 10:54 2,3 C 93 % 1021,1 hPa 0,0 l/m 16,3 km/h (3 Bft) S 189 0 min 46 W/m 1,3 C -4,9 C 27,4 km/h (5 Bft)
21.12.2016 10:57 2,3 C 92 % 1021,1 hPa 0,0 l/m 14,6 km/h (3 Bft) S-SW 205 0 min 46 W/m 1,1 C -4,0 C 24,1 km/h (4 Bft)
21.12.2016 11:00 2,3 C 92 % 1021,1 hPa 0,0 l/m 15,4 km/h (3 Bft) S 175 0 min 53 W/m 1,1 C -4,4 C 24,1 km/h (4 Bft)
21.12.2016 11:03 2,3 C 92 % 1021,1 hPa 0,0 l/m 16,6 km/h (3 Bft) SW 227 0 min 70 W/m 1,1 C -5,1 C 25,7 km/h (4 Bft)
21.12.2016 11:06 2,4 C 92 % 1021,1 hPa 0,0 l/m 16,0 km/h (3 Bft) W-SW 242 0 min 67 W/m 1,2 C -4,6 C 27,4 km/h (5 Bft)
21.12.2016 11:09 2,5 C 92 % 1021,0 hPa 0,0 l/m 16,1 km/h (3 Bft) S-SO 161 0 min 56 W/m 1,3 C -4,5 C 25,7 km/h (4 Bft)
21.12.2016 11:12 2,5 C 92 % 1021,0 hPa 0,0 l/m 14,3 km/h (3 Bft) S-SW 211 0 min 47 W/m 1,3 C -3,6 C 20,9 km/h (4 Bft)
21.12.2016 11:15 2,5 C 92 % 1021,0 hPa 0,0 l/m 15,3 km/h (3 Bft) S-SW 212 0 min 46 W/m 1,3 C -4,1 C 27,4 km/h (5 Bft)
21.12.2016 11:18 2,6 C 92 % 1021,0 hPa 0,0 l/m 15,9 km/h (3 Bft) W-SW 239 0 min 54 W/m 1,4 C -4,3 C 25,7 km/h (4 Bft)
21.12.2016 11:21 2,6 C 92 % 1021,0 hPa 0,0 l/m 18,6 km/h (3 Bft) S-SW 209 0 min 53 W/m 1,4 C -5,7 C 32,2 km/h (5 Bft)
21.12.2016 11:24 2,7 C 92 % 1021,0 hPa 0,0 l/m 17,3 km/h (3 Bft) SW 215 0 min 54 W/m 1,5 C -4,9 C 27,4 km/h (5 Bft)
21.12.2016 11:27 2,7 C 92 % 1021,0 hPa 0,0 l/m 18,0 km/h (3 Bft) SW 225 0 min 54 W/m 1,5 C -5,2 C 30,6 km/h (5 Bft)
21.12.2016 11:30 2,8 C 91 % 1020,9 hPa 0,0 l/m 16,0 km/h (3 Bft) SW 219 0 min 54 W/m 1,5 C -4,1 C 29,0 km/h (5 Bft)
21.12.2016 11:33 2,8 C 91 % 1020,8 hPa 0,0 l/m 15,7 km/h (3 Bft) S-SW 204 0 min 62 W/m 1,5 C -4,0 C 30,6 km/h (5 Bft)
21.12.2016 11:36 2,9 C 91 % 1020,8 hPa 0,0 l/m 15,2 km/h (3 Bft) S-SW 212 0 min 74 W/m 1,6 C -3,6 C 29,0 km/h (5 Bft)
21.12.2016 11:39 3,0 C 91 % 1020,7 hPa 0,0 l/m 16,9 km/h (3 Bft) SW 219 0 min 77 W/m 1,7 C -4,3 C 25,7 km/h (4 Bft)
21.12.2016 11:42 3,1 C 91 % 1020,7 hPa 0,0 l/m 18,3 km/h (3 Bft) W-SW 239 0 min 88 W/m 1,8 C -4,9 C 33,8 km/h (5 Bft)
21.12.2016 11:45 3,2 C 91 % 1020,6 hPa 0,0 l/m 17,0 km/h (3 Bft) SW 220 0 min 81 W/m 1,9 C -4,1 C 24,1 km/h (4 Bft)
21.12.2016 11:48 3,3 C 91 % 1020,8 hPa 0,0 l/m 15,8 km/h (3 Bft) S-SW 208 0 min 69 W/m 2,0 C -3,4 C 22,5 km/h (4 Bft)
21.12.2016 11:51 3,3 C 91 % 1020,7 hPa 0,0 l/m 17,6 km/h (3 Bft) SO 140 0 min 56 W/m 2,0 C -4,3 C 32,2 km/h (5 Bft)
21.12.2016 11:54 3,3 C 90 % 1020,7 hPa 0,0 l/m 17,7 km/h (3 Bft) SW 236 0 min 62 W/m 1,8 C -4,3 C 33,8 km/h (5 Bft)
21.12.2016 11:57 3,3 C 91 % 1020,6 hPa 0,0 l/m 19,2 km/h (3 Bft) S-SW 205 0 min 58 W/m 2,0 C -5,0 C 37,0 km/h (5 Bft)
21.12.2016 12:00 3,3 C 90 % 1020,7 hPa 0,0 l/m 17,6 km/h (3 Bft) S-SW 199 0 min 56 W/m 1,8 C -4,3 C 29,0 km/h (5 Bft)
21.12.2016 12:03 3,4 C 90 % 1020,6 hPa 0,0 l/m 18,0 km/h (3 Bft) S-SW 207 0 min 49 W/m 1,9 C -4,4 C 27,4 km/h (5 Bft)
21.12.2016 12:06 3,4 C 91 % 1020,5 hPa 0,0 l/m 15,7 km/h (3 Bft) S-SW 203 0 min 47 W/m 2,1 C -3,2 C 30,6 km/h (5 Bft)
21.12.2016 12:09 3,4 C 91 % 1020,6 hPa 0,0 l/m 20,4 km/h (4 Bft) SW 220 0 min 54 W/m 2,1 C -5,4 C 30,6 km/h (5 Bft)
21.12.2016 12:12 3,6 C 91 % 1020,6 hPa 0,0 l/m 17,3 km/h (3 Bft) S 185 0 min 79 W/m 2,3 C -3,8 C 29,0 km/h (5 Bft)
21.12.2016 12:15 3,7 C 90 % 1020,5 hPa 0,0 l/m 18,5 km/h (3 Bft) SW 223 0 min 95 W/m 2,2 C -4,2 C 32,2 km/h (5 Bft)
21.12.2016 12:18 3,9 C 90 % 1020,5 hPa 0,0 l/m 20,0 km/h (4 Bft) S 184 0 min 84 W/m 2,4 C -4,6 C 32,2 km/h (5 Bft)
21.12.2016 12:21 3,9 C 90 % 1020,5 hPa 0,0 l/m 23,7 km/h (4 Bft) SW 234 0 min 77 W/m 2,4 C -6,0 C 35,4 km/h (5 Bft)
21.12.2016 12:24 3,9 C 90 % 1020,3 hPa 0,0 l/m 19,6 km/h (3 Bft) S-SW 206 0 min 79 W/m 2,4 C -4,4 C 41,8 km/h (6 Bft)
21.12.2016 12:27 4,1 C 90 % 1020,3 hPa 0,0 l/m 19,8 km/h (3 Bft) SW 217 0 min 83 W/m 2,6 C -4,3 C 30,6 km/h (5 Bft)
21.12.2016 12:30 4,1 C 89 % 1020,2 hPa 0,0 l/m 21,8 km/h (4 Bft) W 261 0 min 93 W/m 2,5 C -5,0 C 32,2 km/h (5 Bft)
21.12.2016 12:33 4,2 C 89 % 1020,4 hPa 0,0 l/m 20,2 km/h (4 Bft) S 178 0 min 98 W/m 2,6 C -4,3 C 30,6 km/h (5 Bft)
21.12.2016 12:36 4,4 C 89 % 1020,4 hPa 0,0 l/m 20,3 km/h (4 Bft) W-SW 244 0 min 100 W/m 2,7 C -4,1 C 32,2 km/h (5 Bft)
21.12.2016 12:39 4,4 C 89 % 1020,5 hPa 0,0 l/m 17,1 km/h (3 Bft) S 176 0 min 77 W/m 2,7 C -2,7 C 30,6 km/h (5 Bft)
21.12.2016 12:42 4,5 C 88 % 1020,6 hPa 0,0 l/m 21,8 km/h (4 Bft) W-SW 245 0 min 86 W/m 2,7 C -4,5 C 38,6 km/h (6 Bft)
21.12.2016 12:45 4,6 C 88 % 1020,7 hPa 0,0 l/m 18,1 km/h (3 Bft) SW 219 0 min 90 W/m 2,8 C -2,9 C 29,0 km/h (5 Bft)
21.12.2016 12:48 4,6 C 88 % 1020,7 hPa 0,0 l/m 19,6 km/h (3 Bft) S-SW 207 0 min 70 W/m 2,8 C -3,5 C 29,0 km/h (5 Bft)
21.12.2016 12:51 4,5 C 88 % 1020,8 hPa 0,0 l/m 18,8 km/h (3 Bft) SW 233 0 min 60 W/m 2,7 C -3,3 C 30,6 km/h (5 Bft)
21.12.2016 12:54 4,4 C 88 % 1020,9 hPa 0,0 l/m 20,5 km/h (4 Bft) S-SW 213 0 min 104 W/m 2,6 C -4,1 C 32,2 km/h (5 Bft)
21.12.2016 12:57 4,5 C 89 % 1020,8 hPa 0,0 l/m 21,7 km/h (4 Bft) W-SW 257 3 min 130 W/m 2,8 C -4,5 C 33,8 km/h (5 Bft)
21.12.2016 13:00 4,6 C 89 % 1020,8 hPa 0,0 l/m 18,6 km/h (3 Bft) SW 224 0 min 118 W/m 2,9 C -3,1 C 32,2 km/h (5 Bft)
21.12.2016 13:03 4,6 C 89 % 1020,8 hPa 0,0 l/m 23,5 km/h (4 Bft) S-SW 203 0 min 86 W/m 2,9 C -5,0 C 35,4 km/h (5 Bft)
21.12.2016 13:06 4,6 C 89 % 1020,8 hPa 0,0 l/m 20,1 km/h (4 Bft) S-SW 209 0 min 62 W/m 2,9 C -3,7 C 30,6 km/h (5 Bft)
21.12.2016 13:09 4,6 C 89 % 1020,9 hPa 0,0 l/m 20,3 km/h (4 Bft) W 265 0 min 46 W/m 2,9 C -3,8 C 35,4 km/h (5 Bft)
21.12.2016 13:12 4,6 C 88 % 1020,8 hPa 0,0 l/m 22,2 km/h (4 Bft) W 262 0 min 37 W/m 2,8 C -4,5 C 32,2 km/h (5 Bft)
21.12.2016 13:15 4,6 C 88 % 1020,7 hPa 0,0 l/m 19,5 km/h (3 Bft) S 191 0 min 40 W/m 2,8 C -3,5 C 30,6 km/h (5 Bft)
21.12.2016 13:18 4,6 C 89 % 1020,7 hPa 0,0 l/m 16,5 km/h (3 Bft) S-SW 202 0 min 53 W/m 2,9 C -2,2 C 32,2 km/h (5 Bft)
21.12.2016 13:21 4,6 C 89 % 1020,7 hPa 0,0 l/m 16,7 km/h (3 Bft) W-SW 252 0 min 65 W/m 2,9 C -2,3 C 27,4 km/h (5 Bft)
21.12.2016 13:24 4,6 C 89 % 1020,7 hPa 0,0 l/m 19,8 km/h (3 Bft) S-SO 159 0 min 70 W/m 2,9 C -3,6 C 32,2 km/h (5 Bft)
21.12.2016 13:27 4,6 C 89 % 1020,8 hPa 0,0 l/m 16,3 km/h (3 Bft) SW 231 0 min 65 W/m 2,9 C -2,1 C 27,4 km/h (5 Bft)
21.12.2016 13:30 4,7 C 89 % 1020,7 hPa 0,0 l/m 17,9 km/h (3 Bft) SW 217 0 min 67 W/m 3,0 C -2,7 C 29,0 km/h (5 Bft)
21.12.2016 13:33 4,7 C 89 % 1020,7 hPa 0,0 l/m 14,2 km/h (3 Bft) SW 236 0 min 67 W/m 3,0 C -0,9 C 25,7 km/h (4 Bft)
21.12.2016 13:36 4,7 C 89 % 1020,6 hPa 0,0 l/m 16,5 km/h (3 Bft) S 181 0 min 69 W/m 3,0 C -2,0 C 37,0 km/h (5 Bft)
21.12.2016 13:39 4,7 C 89 % 1020,5 hPa 0,0 l/m 16,3 km/h (3 Bft) S 173 0 min 69 W/m 3,0 C -1,9 C 25,7 km/h (4 Bft)
21.12.2016 13:42 4,7 C 89 % 1020,5 hPa 0,0 l/m 16,6 km/h (3 Bft) S-SW 199 0 min 65 W/m 3,0 C -2,1 C 29,0 km/h (5 Bft)
21.12.2016 13:45 4,7 C 89 % 1020,4 hPa 0,0 l/m 15,1 km/h (3 Bft) W-SW 248 0 min 62 W/m 3,0 C -1,3 C 24,1 km/h (4 Bft)
21.12.2016 13:48 4,7 C 89 % 1020,4 hPa 0,0 l/m 17,1 km/h (3 Bft) SW 229 0 min 60 W/m 3,0 C -2,3 C 29,0 km/h (5 Bft)
21.12.2016 13:51 4,7 C 89 % 1020,3 hPa 0,0 l/m 14,0 km/h (3 Bft) S-SW 200 0 min 56 W/m 3,0 C -0,8 C 24,1 km/h (4 Bft)
21.12.2016 13:54 4,7 C 89 % 1020,3 hPa 0,0 l/m 14,3 km/h (3 Bft) S-SW 208 0 min 56 W/m 3,0 C -0,9 C 25,7 km/h (4 Bft)
21.12.2016 13:57 4,7 C 89 % 1020,3 hPa 0,0 l/m 14,5 km/h (3 Bft) S 188 0 min 56 W/m 3,0 C -1,0 C 22,5 km/h (4 Bft)
21.12.2016 14:00 4,7 C 89 % 1020,4 hPa 0,0 l/m 13,5 km/h (3 Bft) S 180 0 min 58 W/m 3,0 C -0,5 C 25,7 km/h (4 Bft)
21.12.2016 14:03 4,7 C 89 % 1020,4 hPa 0,0 l/m 17,9 km/h (3 Bft) S 189 0 min 60 W/m 3,0 C -2,7 C 27,4 km/h (5 Bft)
21.12.2016 14:06 4,8 C 89 % 1020,5 hPa 0,0 l/m 17,5 km/h (3 Bft) SW 214 0 min 60 W/m 3,1 C -2,4 C 30,6 km/h (5 Bft)
21.12.2016 14:09 4,8 C 89 % 1020,4 hPa 0,0 l/m 15,7 km/h (3 Bft) W-SW 252 0 min 60 W/m 3,1 C -1,5 C 29,0 km/h (5 Bft)
21.12.2016 14:12 4,8 C 89 % 1020,4 hPa 0,0 l/m 18,5 km/h (3 Bft) S-SO 167 0 min 62 W/m 3,1 C -2,8 C 30,6 km/h (5 Bft)
21.12.2016 14:15 4,8 C 89 % 1020,5 hPa 0,0 l/m 19,1 km/h (3 Bft) W-SW 248 0 min 60 W/m 3,1 C -3,1 C 33,8 km/h (5 Bft)
21.12.2016 14:18 4,8 C 89 % 1020,6 hPa 0,0 l/m 17,5 km/h (3 Bft) S 186 0 min 56 W/m 3,1 C -2,4 C 30,6 km/h (5 Bft)
21.12.2016 14:21 4,8 C 89 % 1020,5 hPa 0,0 l/m 17,9 km/h (3 Bft) SW 233 0 min 54 W/m 3,1 C -2,5 C 27,4 km/h (5 Bft)
21.12.2016 14:24 4,8 C 89 % 1020,6 hPa 0,0 l/m 14,9 km/h (3 Bft) S-SW 202 0 min 54 W/m 3,1 C -1,1 C 22,5 km/h (4 Bft)
21.12.2016 14:27 4,8 C 89 % 1020,6 hPa 0,0 l/m 19,0 km/h (3 Bft) S 190 0 min 51 W/m 3,1 C -3,0 C 29,0 km/h (5 Bft)
21.12.2016 14:30 4,8 C 89 % 1020,7 hPa 0,0 l/m 20,3 km/h (4 Bft) S-SW 211 0 min 44 W/m 3,1 C -3,5 C 30,6 km/h (5 Bft)
21.12.2016 14:33 4,9 C 89 % 1020,7 hPa 0,0 l/m 16,1 km/h (3 Bft) SW 234 0 min 46 W/m 3,2 C -1,6 C 29,0 km/h (5 Bft)
21.12.2016 14:36 4,9 C 89 % 1020,8 hPa 0,0 l/m 16,4 km/h (3 Bft) W 264 0 min 42 W/m 3,2 C -1,7 C 33,8 km/h (5 Bft)
21.12.2016 14:39 4,9 C 89 % 1020,8 hPa 0,0 l/m 20,0 km/h (4 Bft) S-SW 192 0 min 33 W/m 3,2 C -3,3 C 33,8 km/h (5 Bft)
21.12.2016 14:42 4,9 C 89 % 1020,8 hPa 0,0 l/m 17,7 km/h (3 Bft) S-SW 207 0 min 30 W/m 3,2 C -2,3 C 32,2 km/h (5 Bft)
21.12.2016 14:45 4,9 C 89 % 1020,7 hPa 0,0 l/m 17,9 km/h (3 Bft) S-SW 205 0 min 26 W/m 3,2 C -2,4 C 27,4 km/h (5 Bft)
21.12.2016 14:48 4,9 C 89 % 1020,9 hPa 0,0 l/m 19,0 km/h (3 Bft) S-SW 196 0 min 25 W/m 3,2 C -2,9 C 29,0 km/h (5 Bft)
21.12.2016 14:51 5,0 C 89 % 1020,8 hPa 0,0 l/m 18,4 km/h (3 Bft) SW 222 0 min 25 W/m 3,3 C -2,5 C 27,4 km/h (5 Bft)
21.12.2016 14:54 5,0 C 89 % 1020,9 hPa 0,0 l/m 16,0 km/h (3 Bft) S 182 0 min 23 W/m 3,3 C -1,4 C 30,6 km/h (5 Bft)
21.12.2016 14:57 5,0 C 89 % 1020,9 hPa 0,0 l/m 17,7 km/h (3 Bft) SW 224 0 min 21 W/m 3,3 C -2,2 C 33,8 km/h (5 Bft)
21.12.2016 15:00 5,0 C 89 % 1020,9 hPa 0,0 l/m 15,1 km/h (3 Bft) W-SW 238 0 min 19 W/m 3,3 C -1,0 C 29,0 km/h (5 Bft)
21.12.2016 15:03 5,0 C 89 % 1020,8 hPa 0,0 l/m 18,5 km/h (3 Bft) S-SW 211 0 min 16 W/m 3,3 C -2,6 C 32,2 km/h (5 Bft)
21.12.2016 15:06 5,0 C 89 % 1020,9 hPa 0,0 l/m 15,7 km/h (3 Bft) SW 226 0 min 12 W/m 3,3 C -1,3 C 29,0 km/h (5 Bft)
21.12.2016 15:09 5,0 C 89 % 1020,9 hPa 0,0 l/m 16,7 km/h (3 Bft) S-SW 192 0 min 12 W/m 3,3 C -1,8 C 24,1 km/h (4 Bft)
21.12.2016 15:12 5,0 C 89 % 1020,9 hPa 0,0 l/m 15,6 km/h (3 Bft) S 172 0 min 11 W/m 3,3 C -1,2 C 27,4 km/h (5 Bft)
21.12.2016 15:15 5,0 C 90 % 1020,8 hPa 0,0 l/m 16,1 km/h (3 Bft) S-SW 212 0 min 11 W/m 3,5 C -1,5 C 30,6 km/h (5 Bft)
21.12.2016 15:18 5,0 C 90 % 1020,8 hPa 0,0 l/m 16,7 km/h (3 Bft) S 173 0 min 11 W/m 3,5 C -1,8 C 27,4 km/h (5 Bft)
21.12.2016 15:21 5,0 C 90 % 1020,8 hPa 0,0 l/m 13,8 km/h (3 Bft) S 180 0 min 11 W/m 3,5 C -0,3 C 22,5 km/h (4 Bft)
21.12.2016 15:24 5,0 C 90 % 1020,8 hPa 0,0 l/m 16,9 km/h (3 Bft) S-SW 196 0 min 9 W/m 3,5 C -1,8 C 33,8 km/h (5 Bft)
21.12.2016 15:27 5,0 C 90 % 1020,9 hPa 0,0 l/m 17,7 km/h (3 Bft) W-SW 257 0 min 7 W/m 3,5 C -2,2 C 29,0 km/h (5 Bft)
21.12.2016 15:30 5,0 C 90 % 1020,9 hPa 0,0 l/m 17,3 km/h (3 Bft) SW 219 0 min 7 W/m 3,5 C -2,0 C 25,7 km/h (4 Bft)
21.12.2016 15:33 5,0 C 90 % 1021,0 hPa 0,0 l/m 15,1 km/h (3 Bft) S-SW 204 0 min 7 W/m 3,5 C -1,0 C 24,1 km/h (4 Bft)
21.12.2016 15:36 5,1 C 90 % 1021,0 hPa 0,0 l/m 15,2 km/h (3 Bft) S 181 0 min 7 W/m 3,6 C -0,9 C 24,1 km/h (4 Bft)
21.12.2016 15:39 5,0 C 90 % 1021,1 hPa 0,0 l/m 17,0 km/h (3 Bft) S 190 0 min 5 W/m 3,5 C -1,9 C 32,2 km/h (5 Bft)
21.12.2016 15:42 5,1 C 90 % 1021,3 hPa 0,0 l/m 19,6 km/h (3 Bft) SW 234 0 min 0 W/m 3,6 C -2,9 C 33,8 km/h (5 Bft)
21.12.2016 15:45 5,1 C 90 % 1021,3 hPa 0,0 l/m 14,5 km/h (3 Bft) S 186 0 min 0 W/m 3,6 C -0,5 C 25,7 km/h (4 Bft)
21.12.2016 15:48 5,1 C 90 % 1021,2 hPa 0,0 l/m 15,6 km/h (3 Bft) SW 227 0 min 0 W/m 3,6 C -1,1 C 27,4 km/h (5 Bft)
21.12.2016 15:51 5,1 C 91 % 1021,3 hPa 0,0 l/m 17,5 km/h (3 Bft) W-SW 249 0 min 0 W/m 3,8 C -2,0 C 27,4 km/h (5 Bft)
21.12.2016 15:54 5,1 C 91 % 1021,3 hPa 0,0 l/m 14,3 km/h (3 Bft) S-SW 205 0 min 0 W/m 3,8 C -0,4 C 22,5 km/h (4 Bft)
21.12.2016 15:57 5,1 C 91 % 1021,3 hPa 0,0 l/m 16,9 km/h (3 Bft) SW 231 0 min 0 W/m 3,8 C -1,7 C 29,0 km/h (5 Bft)
21.12.2016 16:00 5,1 C 91 % 1021,2 hPa 0,0 l/m 13,2 km/h (3 Bft) S-SW 205 0 min 0 W/m 3,8 C 0,2 C 20,9 km/h (4 Bft)
21.12.2016 16:03 5,1 C 91 % 1021,2 hPa 0,0 l/m 17,2 km/h (3 Bft) S-SW 213 0 min 0 W/m 3,8 C -1,9 C 25,7 km/h (4 Bft)
21.12.2016 16:06 5,2 C 91 % 1021,1 hPa 0,0 l/m 17,1 km/h (3 Bft) S-SW 196 0 min 0 W/m 3,9 C -1,7 C 30,6 km/h (5 Bft)
21.12.2016 16:09 5,2 C 91 % 1021,1 hPa 0,0 l/m 18,1 km/h (3 Bft) S-SO 153 0 min 0 W/m 3,9 C -2,1 C 32,2 km/h (5 Bft)
21.12.2016 16:12 5,2 C 91 % 1021,1 hPa 0,0 l/m 15,6 km/h (3 Bft) S-SW 203 0 min 0 W/m 3,9 C -1,0 C 25,7 km/h (4 Bft)
21.12.2016 16:15 5,2 C 91 % 1021,0 hPa 0,0 l/m 14,5 km/h (3 Bft) S 175 0 min 0 W/m 3,9 C -0,4 C 22,5 km/h (4 Bft)
21.12.2016 16:18 5,2 C 91 % 1021,0 hPa 0,0 l/m 12,8 km/h (3 Bft) SW 222 0 min 0 W/m 3,9 C 0,5 C 17,7 km/h (3 Bft)
21.12.2016 16:21 5,2 C 92 % 1021,0 hPa 0,0 l/m 15,0 km/h (3 Bft) S 171 0 min 0 W/m 4,0 C -0,7 C 22,5 km/h (4 Bft)
21.12.2016 16:24 5,2 C 92 % 1021,0 hPa 0,0 l/m 15,0 km/h (3 Bft) S-SW 193 0 min 0 W/m 4,0 C -0,7 C 27,4 km/h (5 Bft)
21.12.2016 16:27 5,3 C 92 % 1021,0 hPa 0,0 l/m 15,2 km/h (3 Bft) S 185 0 min 0 W/m 4,1 C -0,7 C 29,0 km/h (5 Bft)
21.12.2016 16:30 5,2 C 92 % 1021,0 hPa 0,0 l/m 13,9 km/h (3 Bft) SW 231 0 min 0 W/m 4,0 C -0,1 C 24,1 km/h (4 Bft)
21.12.2016 16:33 5,2 C 92 % 1021,1 hPa 0,0 l/m 13,7 km/h (3 Bft) S-SW 199 0 min 0 W/m 4,0 C 0,0 C 24,1 km/h (4 Bft)
21.12.2016 16:36 5,2 C 92 % 1021,2 hPa 0,0 l/m 16,1 km/h (3 Bft) SW 221 0 min 0 W/m 4,0 C -1,2 C 24,1 km/h (4 Bft)
21.12.2016 16:39 5,2 C 92 % 1021,2 hPa 0,0 l/m 15,1 km/h (3 Bft) S-SW 203 0 min 0 W/m 4,0 C -0,7 C 29,0 km/h (5 Bft)
21.12.2016 16:42 5,2 C 92 % 1021,4 hPa 0,0 l/m 13,8 km/h (3 Bft) S 187 0 min 0 W/m 4,0 C -0,0 C 24,1 km/h (4 Bft)
21.12.2016 16:45 5,2 C 92 % 1021,4 hPa 0,0 l/m 15,1 km/h (3 Bft) SW 223 0 min 0 W/m 4,0 C -0,7 C 22,5 km/h (4 Bft)
21.12.2016 16:48 5,2 C 92 % 1021,5 hPa 0,0 l/m 14,8 km/h (3 Bft) SW 225 0 min 0 W/m 4,0 C -0,6 C 22,5 km/h (4 Bft)
21.12.2016 16:51 5,2 C 92 % 1021,5 hPa 0,0 l/m 15,7 km/h (3 Bft) SW 230 0 min 0 W/m 4,0 C -1,0 C 22,5 km/h (4 Bft)
21.12.2016 16:54 5,3 C 92 % 1021,5 hPa 0,0 l/m 16,7 km/h (3 Bft) SW 221 0 min 0 W/m 4,1 C -1,4 C 25,7 km/h (4 Bft)
21.12.2016 16:57 5,3 C 92 % 1021,4 hPa 0,0 l/m 20,2 km/h (4 Bft) SW 219 0 min 0 W/m 4,1 C -2,9 C 30,6 km/h (5 Bft)
21.12.2016 17:00 5,3 C 92 % 1021,3 hPa 0,0 l/m 17,0 km/h (3 Bft) S-SW 209 0 min 0 W/m 4,1 C -1,5 C 25,7 km/h (4 Bft)
21.12.2016 17:03 5,4 C 91 % 1021,4 hPa 0,0 l/m 16,9 km/h (3 Bft) S-SW 198 0 min 0 W/m 4,1 C -1,3 C 25,7 km/h (4 Bft)
21.12.2016 17:06 5,4 C 92 % 1021,4 hPa 0,0 l/m 16,9 km/h (3 Bft) W-SW 257 0 min 0 W/m 4,2 C -1,3 C 30,6 km/h (5 Bft)
21.12.2016 17:09 5,4 C 92 % 1021,4 hPa 0,0 l/m 16,3 km/h (3 Bft) SW 236 0 min 0 W/m 4,2 C -1,1 C 27,4 km/h (5 Bft)
21.12.2016 17:12 5,4 C 91 % 1021,4 hPa 0,0 l/m 17,9 km/h (3 Bft) S-SW 201 0 min 0 W/m 4,1 C -1,8 C 30,6 km/h (5 Bft)
21.12.2016 17:15 5,4 C 91 % 1021,4 hPa 0,0 l/m 16,7 km/h (3 Bft) SW 216 0 min 0 W/m 4,1 C -1,3 C 25,7 km/h (4 Bft)
21.12.2016 17:18 5,5 C 91 % 1021,4 hPa 0,0 l/m 15,0 km/h (3 Bft) SW 215 0 min 0 W/m 4,2 C -0,3 C 27,4 km/h (5 Bft)
21.12.2016 17:21 5,5 C 91 % 1021,3 hPa 0,0 l/m 14,5 km/h (3 Bft) S-SW 198 0 min 0 W/m 4,2 C -0,1 C 20,9 km/h (4 Bft)
21.12.2016 17:24 5,5 C 91 % 1021,2 hPa 0,0 l/m 15,3 km/h (3 Bft) S-SW 207 0 min 0 W/m 4,2 C -0,5 C 29,0 km/h (5 Bft)
21.12.2016 17:27 5,6 C 91 % 1021,3 hPa 0,0 l/m 15,5 km/h (3 Bft) SW 228 0 min 0 W/m 4,2 C -0,4 C 22,5 km/h (4 Bft)
21.12.2016 17:30 5,6 C 91 % 1021,3 hPa 0,0 l/m 14,6 km/h (3 Bft) W-SW 248 0 min 0 W/m 4,2 C 0,0 C 27,4 km/h (5 Bft)
21.12.2016 17:33 5,6 C 91 % 1021,3 hPa 0,0 l/m 14,4 km/h (3 Bft) SW 233 0 min 0 W/m 4,2 C 0,1 C 25,7 km/h (4 Bft)
21.12.2016 17:36 5,6 C 91 % 1021,3 hPa 0,0 l/m 15,3 km/h (3 Bft) S-SW 196 0 min 0 W/m 4,2 C -0,3 C 25,7 km/h (4 Bft)
21.12.2016 17:39 5,6 C 91 % 1021,3 hPa 0,0 l/m 17,2 km/h (3 Bft) SW 234 0 min 0 W/m 4,2 C -1,2 C 24,1 km/h (4 Bft)
21.12.2016 17:42 5,6 C 91 % 1021,3 hPa 0,0 l/m 16,1 km/h (3 Bft) S-SW 209 0 min 0 W/m 4,2 C -0,7 C 27,4 km/h (5 Bft)
21.12.2016 17:45 5,6 C 91 % 1021,4 hPa 0,0 l/m 14,7 km/h (3 Bft) S-SW 204 0 min 0 W/m 4,2 C -0,0 C 25,7 km/h (4 Bft)
21.12.2016 17:48 5,7 C 91 % 1021,4 hPa 0,0 l/m 16,1 km/h (3 Bft) SW 225 0 min 0 W/m 4,3 C -0,6 C 22,5 km/h (4 Bft)
21.12.2016 17:51 5,7 C 91 % 1021,4 hPa 0,0 l/m 16,0 km/h (3 Bft) SW 225 0 min 0 W/m 4,3 C -0,6 C 30,6 km/h (5 Bft)
21.12.2016 17:54 5,7 C 90 % 1021,4 hPa 0,0 l/m 15,8 km/h (3 Bft) S-SW 205 0 min 0 W/m 4,2 C -0,5 C 24,1 km/h (4 Bft)
21.12.2016 17:57 5,7 C 90 % 1021,5 hPa 0,0 l/m 16,7 km/h (3 Bft) SW 215 0 min 0 W/m 4,2 C -0,9 C 27,4 km/h (5 Bft)
21.12.2016 18:00 5,7 C 90 % 1021,5 hPa 0,0 l/m 16,6 km/h (3 Bft) SW 215 0 min 0 W/m 4,2 C -0,8 C 25,7 km/h (4 Bft)
21.12.2016 18:03 5,8 C 90 % 1021,6 hPa 0,0 l/m 17,3 km/h (3 Bft) SW 214 0 min 0 W/m 4,3 C -1,0 C 30,6 km/h (5 Bft)
21.12.2016 18:06 5,8 C 90 % 1021,6 hPa 0,0 l/m 12,9 km/h (3 Bft) W-SW 243 0 min 0 W/m 4,3 C 1,2 C 22,5 km/h (4 Bft)
21.12.2016 18:09 5,8 C 90 % 1021,5 hPa 0,0 l/m 17,6 km/h (3 Bft) SW 226 0 min 0 W/m 4,3 C -1,2 C 24,1 km/h (4 Bft)
21.12.2016 18:12 5,8 C 90 % 1021,6 hPa 0,0 l/m 15,0 km/h (3 Bft) S-SW 212 0 min 0 W/m 4,3 C 0,0 C 22,5 km/h (4 Bft)
21.12.2016 18:15 5,8 C 89 % 1021,5 hPa 0,0 l/m 16,8 km/h (3 Bft) W-SW 238 0 min 0 W/m 4,1 C -0,8 C 27,4 km/h (5 Bft)
21.12.2016 18:18 5,9 C 89 % 1021,6 hPa 0,0 l/m 19,2 km/h (3 Bft) SW 226 0 min 0 W/m 4,2 C -1,7 C 30,6 km/h (5 Bft)
21.12.2016 18:21 5,9 C 89 % 1021,5 hPa 0,0 l/m 14,9 km/h (3 Bft) SW 231 0 min 0 W/m 4,2 C 0,2 C 25,7 km/h (4 Bft)
21.12.2016 18:24 5,9 C 89 % 1021,5 hPa 0,0 l/m 16,7 km/h (3 Bft) S-SW 199 0 min 0 W/m 4,2 C -0,6 C 27,4 km/h (5 Bft)
21.12.2016 18:27 5,9 C 89 % 1021,5 hPa 0,0 l/m 13,0 km/h (3 Bft) SW 236 0 min 0 W/m 4,2 C 1,2 C 22,5 km/h (4 Bft)
21.12.2016 18:30 5,9 C 89 % 1021,4 hPa 0,0 l/m 15,1 km/h (3 Bft) S 177 0 min 0 W/m 4,2 C 0,1 C 27,4 km/h (5 Bft)
21.12.2016 18:33 5,9 C 89 % 1021,3 hPa 0,0 l/m 15,1 km/h (3 Bft) S-SO 155 0 min 0 W/m 4,2 C 0,1 C 25,7 km/h (4 Bft)
21.12.2016 18:36 5,9 C 89 % 1021,3 hPa 0,0 l/m 14,6 km/h (3 Bft) S 190 0 min 0 W/m 4,2 C 0,4 C 25,7 km/h (4 Bft)
21.12.2016 18:39 5,9 C 88 % 1021,4 hPa 0,0 l/m 12,6 km/h (3 Bft) S-SW 195 0 min 0 W/m 4,1 C 1,4 C 20,9 km/h (4 Bft)
21.12.2016 18:42 5,9 C 89 % 1021,3 hPa 0,0 l/m 13,0 km/h (3 Bft) S-SO 150 0 min 0 W/m 4,2 C 1,2 C 22,5 km/h (4 Bft)
21.12.2016 18:45 5,8 C 89 % 1021,3 hPa 0,0 l/m 12,3 km/h (2 Bft) SW 229 0 min 0 W/m 4,1 C 1,5 C 22,5 km/h (4 Bft)
21.12.2016 18:48 5,8 C 89 % 1021,3 hPa 0,0 l/m 12,1 km/h (2 Bft) S 190 0 min 0 W/m 4,1 C 1,6 C 24,1 km/h (4 Bft)
21.12.2016 18:51 5,8 C 89 % 1021,3 hPa 0,0 l/m 13,9 km/h (3 Bft) S-SW 198 0 min 0 W/m 4,1 C 0,6 C 24,1 km/h (4 Bft)
21.12.2016 18:54 5,8 C 89 % 1021,2 hPa 0,0 l/m 14,1 km/h (3 Bft) S-SO 161 0 min 0 W/m 4,1 C 0,5 C 27,4 km/h (5 Bft)
21.12.2016 18:57 5,8 C 89 % 1021,2 hPa 0,0 l/m 13,2 km/h (3 Bft) S-SW 206 0 min 0 W/m 4,1 C 1,0 C 22,5 km/h (4 Bft)
21.12.2016 19:00 5,8 C 89 % 1021,3 hPa 0,0 l/m 15,1 km/h (3 Bft) S 170 0 min 0 W/m 4,1 C -0,0 C 29,0 km/h (5 Bft)
21.12.2016 19:03 5,8 C 89 % 1021,4 hPa 0,0 l/m 14,6 km/h (3 Bft) SW 228 0 min 0 W/m 4,1 C 0,2 C 22,5 km/h (4 Bft)
21.12.2016 19:06 5,8 C 89 % 1021,4 hPa 0,0 l/m 14,2 km/h (3 Bft) S 172 0 min 0 W/m 4,1 C 0,5 C 22,5 km/h (4 Bft)
21.12.2016 19:09 5,8 C 89 % 1021,4 hPa 0,0 l/m 15,1 km/h (3 Bft) S-SW 213 0 min 0 W/m 4,1 C -0,0 C 24,1 km/h (4 Bft)
21.12.2016 19:12 5,8 C 89 % 1021,5 hPa 0,0 l/m 14,8 km/h (3 Bft) SW 217 0 min 0 W/m 4,1 C 0,1 C 29,0 km/h (5 Bft)
21.12.2016 19:15 5,9 C 89 % 1021,4 hPa 0,0 l/m 14,9 km/h (3 Bft) SW 225 0 min 0 W/m 4,2 C 0,2 C 25,7 km/h (4 Bft)
21.12.2016 19:18 5,9 C 89 % 1021,4 hPa 0,0 l/m 15,6 km/h (3 Bft) SW 226 0 min 0 W/m 4,2 C -0,1 C 25,7 km/h (4 Bft)
21.12.2016 19:21 5,9 C 88 % 1021,3 hPa 0,0 l/m 14,6 km/h (3 Bft) SW 217 0 min 0 W/m 4,1 C 0,4 C 20,9 km/h (4 Bft)
21.12.2016 19:24 6,0 C 89 % 1021,5 hPa 0,0 l/m 17,4 km/h (3 Bft) S-SW 205 0 min 0 W/m 4,3 C -0,8 C 27,4 km/h (5 Bft)
21.12.2016 19:27 6,1 C 89 % 1021,5 hPa 0,0 l/m 16,0 km/h (3 Bft) SW 219 0 min 0 W/m 4,4 C -0,1 C 33,8 km/h (5 Bft)
21.12.2016 19:30 6,1 C 89 % 1021,6 hPa 0,0 l/m 16,3 km/h (3 Bft) SW 215 0 min 0 W/m 4,4 C -0,2 C 25,7 km/h (4 Bft)
21.12.2016 19:33 6,2 C 89 % 1021,5 hPa 0,0 l/m 17,3 km/h (3 Bft) S-SW 193 0 min 0 W/m 4,5 C -0,5 C 27,4 km/h (5 Bft)
21.12.2016 19:36 6,2 C 89 % 1021,6 hPa 0,0 l/m 19,4 km/h (3 Bft) S 182 0 min 0 W/m 4,5 C -1,4 C 27,4 km/h (5 Bft)
21.12.2016 19:39 6,2 C 89 % 1021,5 hPa 0,0 l/m 15,4 km/h (3 Bft) W-SW 239 0 min 0 W/m 4,5 C 0,3 C 22,5 km/h (4 Bft)
21.12.2016 19:42 6,3 C 89 % 1021,5 hPa 0,0 l/m 16,6 km/h (3 Bft) S-SW 211 0 min 0 W/m 4,6 C -0,1 C 24,1 km/h (4 Bft)
21.12.2016 19:45 6,3 C 89 % 1021,6 hPa 0,0 l/m 19,3 km/h (3 Bft) SW 216 0 min 0 W/m 4,6 C -1,2 C 35,4 km/h (5 Bft)
21.12.2016 19:48 6,3 C 89 % 1021,6 hPa 0,0 l/m 19,8 km/h (3 Bft) SW 226 0 min 0 W/m 4,6 C -1,4 C 30,6 km/h (5 Bft)
21.12.2016 19:51 6,3 C 89 % 1021,6 hPa 0,0 l/m 16,5 km/h (3 Bft) SW 232 0 min 0 W/m 4,6 C -0,1 C 25,7 km/h (4 Bft)
21.12.2016 19:54 6,3 C 89 % 1021,7 hPa 0,0 l/m 18,1 km/h (3 Bft) S 182 0 min 0 W/m 4,6 C -0,7 C 25,7 km/h (4 Bft)
21.12.2016 19:57 6,3 C 89 % 1021,6 hPa 0,0 l/m 18,7 km/h (3 Bft) SW 236 0 min 0 W/m 4,6 C -1,0 C 27,4 km/h (5 Bft)
21.12.2016 20:00 6,3 C 89 % 1021,7 hPa 0,0 l/m 16,5 km/h (3 Bft) SW 224 0 min 0 W/m 4,6 C -0,1 C 27,4 km/h (5 Bft)
21.12.2016 20:03 6,3 C 89 % 1021,7 hPa 0,0 l/m 17,3 km/h (3 Bft) S-SW 213 0 min 0 W/m 4,6 C -0,4 C 24,1 km/h (4 Bft)
21.12.2016 20:06 6,3 C 89 % 1021,8 hPa 0,0 l/m 18,2 km/h (3 Bft) SW 230 0 min 0 W/m 4,6 C -0,8 C 27,4 km/h (5 Bft)
21.12.2016 20:09 6,3 C 88 % 1021,8 hPa 0,0 l/m 14,3 km/h (3 Bft) SW 234 0 min 0 W/m 4,5 C 1,0 C 22,5 km/h (4 Bft)
21.12.2016 20:12 6,3 C 89 % 1021,8 hPa 0,0 l/m 15,6 km/h (3 Bft) S-SW 202 0 min 0 W/m 4,6 C 0,4 C 25,7 km/h (4 Bft)
21.12.2016 20:15 6,3 C 89 % 1021,8 hPa 0,0 l/m 18,6 km/h (3 Bft) S 181 0 min 0 W/m 4,6 C -0,9 C 29,0 km/h (5 Bft)
21.12.2016 20:18 6,3 C 89 % 1021,7 hPa 0,0 l/m 14,4 km/h (3 Bft) S-SW 205 0 min 0 W/m 4,6 C 0,9 C 22,5 km/h (4 Bft)
21.12.2016 20:21 6,3 C 89 % 1021,7 hPa 0,0 l/m 15,3 km/h (3 Bft) S-SW 193 0 min 0 W/m 4,6 C 0,5 C 29,0 km/h (5 Bft)
21.12.2016 20:24 6,3 C 89 % 1021,6 hPa 0,0 l/m 18,1 km/h (3 Bft) S-SW 199 0 min 0 W/m 4,6 C -0,7 C 27,4 km/h (5 Bft)
21.12.2016 20:27 6,3 C 89 % 1021,6 hPa 0,0 l/m 13,3 km/h (3 Bft) SW 217 0 min 0 W/m 4,6 C 1,5 C 24,1 km/h (4 Bft)
21.12.2016 20:30 6,3 C 89 % 1021,6 hPa 0,0 l/m 17,1 km/h (3 Bft) S 169 0 min 0 W/m 4,6 C -0,3 C 25,7 km/h (4 Bft)
21.12.2016 20:33 6,3 C 89 % 1021,6 hPa 0,0 l/m 14,5 km/h (3 Bft) SW 228 0 min 0 W/m 4,6 C 0,9 C 27,4 km/h (5 Bft)
21.12.2016 20:36 6,2 C 89 % 1021,6 hPa 0,0 l/m 13,9 km/h (3 Bft) S-SO 168 0 min 0 W/m 4,5 C 1,1 C 20,9 km/h (4 Bft)
21.12.2016 20:39 6,2 C 89 % 1021,5 hPa 0,0 l/m 13,8 km/h (3 Bft) SW 223 0 min 0 W/m 4,5 C 1,1 C 20,9 km/h (4 Bft)
21.12.2016 20:42 6,2 C 89 % 1021,6 hPa 0,0 l/m 13,2 km/h (3 Bft) S 184 0 min 0 W/m 4,5 C 1,5 C 22,5 km/h (4 Bft)
21.12.2016 20:45 6,2 C 89 % 1021,5 hPa 0,0 l/m 15,4 km/h (3 Bft) W-SW 257 0 min 0 W/m 4,5 C 0,3 C 27,4 km/h (5 Bft)
21.12.2016 20:48 6,2 C 89 % 1021,5 hPa 0,0 l/m 14,7 km/h (3 Bft) S 183 0 min 0 W/m 4,5 C 0,7 C 27,4 km/h (5 Bft)
21.12.2016 20:51 6,2 C 89 % 1021,4 hPa 0,0 l/m 13,4 km/h (3 Bft) SW 235 0 min 0 W/m 4,5 C 1,4 C 22,5 km/h (4 Bft)
21.12.2016 20:54 6,1 C 89 % 1021,4 hPa 0,0 l/m 14,3 km/h (3 Bft) S-SW 201 0 min 0 W/m 4,4 C 0,8 C 27,4 km/h (5 Bft)
21.12.2016 20:57 6,1 C 90 % 1021,4 hPa 0,0 l/m 15,4 km/h (3 Bft) SW 230 0 min 0 W/m 4,6 C 0,2 C 25,7 km/h (4 Bft)
21.12.2016 21:00 6,1 C 90 % 1021,5 hPa 0,0 l/m 16,4 km/h (3 Bft) SW 221 0 min 0 W/m 4,6 C -0,3 C 25,7 km/h (4 Bft)
21.12.2016 21:03 6,1 C 90 % 1021,6 hPa 0,0 l/m 16,2 km/h (3 Bft) SW 219 0 min 0 W/m 4,6 C -0,2 C 24,1 km/h (4 Bft)
21.12.2016 21:06 6,1 C 90 % 1021,7 hPa 0,0 l/m 16,7 km/h (3 Bft) SW 235 0 min 0 W/m 4,6 C -0,4 C 27,4 km/h (5 Bft)
21.12.2016 21:09 6,1 C 90 % 1021,6 hPa 0,0 l/m 17,4 km/h (3 Bft) S-SW 213 0 min 0 W/m 4,6 C -0,7 C 32,2 km/h (5 Bft)
21.12.2016 21:12 6,0 C 90 % 1021,5 hPa 0,0 l/m 17,3 km/h (3 Bft) W-SW 250 0 min 0 W/m 4,5 C -0,8 C 25,7 km/h (4 Bft)
21.12.2016 21:15 6,0 C 90 % 1021,6 hPa 0,0 l/m 16,8 km/h (3 Bft) SW 232 0 min 0 W/m 4,5 C -0,6 C 35,4 km/h (5 Bft)
21.12.2016 21:18 6,0 C 90 % 1021,7 hPa 0,0 l/m 16,1 km/h (3 Bft) S-SW 205 0 min 0 W/m 4,5 C -0,2 C 25,7 km/h (4 Bft)
21.12.2016 21:21 6,0 C 90 % 1021,7 hPa 0,0 l/m 14,2 km/h (3 Bft) S 188 0 min 0 W/m 4,5 C 0,7 C 20,9 km/h (4 Bft)
21.12.2016 21:24 6,0 C 91 % 1021,7 hPa 0,0 l/m 17,9 km/h (3 Bft) SW 221 0 min 0 W/m 4,6 C -1,0 C 29,0 km/h (5 Bft)
21.12.2016 21:27 5,9 C 91 % 1021,7 hPa 0,0 l/m 18,1 km/h (3 Bft) S-SW 200 0 min 0 W/m 4,5 C -1,2 C 27,4 km/h (5 Bft)
21.12.2016 21:30 5,9 C 91 % 1021,7 hPa 0,0 l/m 15,7 km/h (3 Bft) SW 224 0 min 0 W/m 4,5 C -0,2 C 29,0 km/h (5 Bft)
21.12.2016 21:33 5,9 C 91 % 1021,7 hPa 0,0 l/m 17,0 km/h (3 Bft) SW 231 0 min 0 W/m 4,5 C -0,8 C 29,0 km/h (5 Bft)
21.12.2016 21:36 5,9 C 91 % 1021,7 hPa 0,0 l/m 16,1 km/h (3 Bft) W-SW 246 0 min 0 W/m 4,5 C -0,4 C 22,5 km/h (4 Bft)
21.12.2016 21:39 5,9 C 91 % 1021,7 hPa 0,0 l/m 15,1 km/h (3 Bft) S-SW 202 0 min 0 W/m 4,5 C 0,1 C 24,1 km/h (4 Bft)
21.12.2016 21:42 5,9 C 91 % 1021,5 hPa 0,0 l/m 16,5 km/h (3 Bft) S 174 0 min 0 W/m 4,5 C -0,5 C 25,7 km/h (4 Bft)
21.12.2016 21:45 5,8 C 91 % 1021,4 hPa 0,0 l/m 16,6 km/h (3 Bft) W-SW 246 0 min 0 W/m 4,4 C -0,7 C 27,4 km/h (5 Bft)
21.12.2016 21:48 5,8 C 92 % 1021,4 hPa 0,0 l/m 16,8 km/h (3 Bft) SW 216 0 min 0 W/m 4,6 C -0,8 C 29,0 km/h (5 Bft)
21.12.2016 21:51 5,8 C 92 % 1021,4 hPa 0,0 l/m 17,9 km/h (3 Bft) S 179 0 min 0 W/m 4,6 C -1,3 C 30,6 km/h (5 Bft)
21.12.2016 21:54 5,8 C 92 % 1021,4 hPa 0,0 l/m 16,0 km/h (3 Bft) SW 220 0 min 0 W/m 4,6 C -0,4 C 30,6 km/h (5 Bft)
21.12.2016 21:57 5,8 C 92 % 1021,6 hPa 0,0 l/m 16,2 km/h (3 Bft) SW 221 0 min 0 W/m 4,6 C -0,5 C 32,2 km/h (5 Bft)
21.12.2016 22:00 5,7 C 92 % 1021,7 hPa 0,0 l/m 17,3 km/h (3 Bft) SW 234 0 min 0 W/m 4,5 C -1,2 C 29,0 km/h (5 Bft)
21.12.2016 22:03 5,7 C 92 % 1021,8 hPa 0,0 l/m 14,7 km/h (3 Bft) SW 229 0 min 0 W/m 4,5 C 0,1 C 25,7 km/h (4 Bft)
21.12.2016 22:06 5,7 C 92 % 1021,8 hPa 0,0 l/m 14,7 km/h (3 Bft) SW 217 0 min 0 W/m 4,5 C 0,1 C 32,2 km/h (5 Bft)
21.12.2016 22:09 5,7 C 93 % 1021,9 hPa 0,0 l/m 15,1 km/h (3 Bft) SW 227 0 min 0 W/m 4,7 C -0,1 C 25,7 km/h (4 Bft)
21.12.2016 22:12 5,7 C 93 % 1022,0 hPa 0,0 l/m 16,2 km/h (3 Bft) W-SW 246 0 min 0 W/m 4,7 C -0,7 C 25,7 km/h (4 Bft)
21.12.2016 22:15 5,7 C 93 % 1022,0 hPa 0,0 l/m 16,6 km/h (3 Bft) S 176 0 min 0 W/m 4,7 C -0,8 C 24,1 km/h (4 Bft)
21.12.2016 22:18 5,7 C 93 % 1022,0 hPa 0,0 l/m 18,8 km/h (3 Bft) SW 236 0 min 0 W/m 4,7 C -1,8 C 29,0 km/h (5 Bft)
21.12.2016 22:21 5,7 C 93 % 1022,1 hPa 0,0 l/m 15,2 km/h (3 Bft) SW 214 0 min 0 W/m 4,7 C -0,2 C 27,4 km/h (5 Bft)
21.12.2016 22:24 5,7 C 93 % 1022,1 hPa 0,0 l/m 19,3 km/h (3 Bft) SW 216 0 min 0 W/m 4,7 C -2,0 C 27,4 km/h (5 Bft)
21.12.2016 22:27 5,6 C 93 % 1022,1 hPa 0,0 l/m 18,9 km/h (3 Bft) SW 223 0 min 0 W/m 4,6 C -2,0 C 27,4 km/h (5 Bft)
21.12.2016 22:30 5,6 C 94 % 1022,1 hPa 0,0 l/m 16,9 km/h (3 Bft) SW 229 0 min 0 W/m 4,7 C -1,1 C 25,7 km/h (4 Bft)
21.12.2016 22:33 5,6 C 94 % 1022,2 hPa 0,2 l/m 16,6 km/h (3 Bft) W-SW 240 0 min 0 W/m 4,7 C -1,0 C 24,1 km/h (4 Bft)
21.12.2016 22:36 5,6 C 94 % 1022,2 hPa 0,0 l/m 15,7 km/h (3 Bft) SW 222 0 min 0 W/m 4,7 C -0,5 C 27,4 km/h (5 Bft)
21.12.2016 22:39 5,5 C 94 % 1022,2 hPa 0,0 l/m 17,2 km/h (3 Bft) S-SW 196 0 min 0 W/m 4,6 C -1,4 C 25,7 km/h (4 Bft)
21.12.2016 22:42 5,5 C 94 % 1022,3 hPa 0,0 l/m 16,9 km/h (3 Bft) W-SW 239 0 min 0 W/m 4,6 C -1,2 C 27,4 km/h (5 Bft)
21.12.2016 22:45 5,5 C 94 % 1022,3 hPa 0,0 l/m 18,9 km/h (3 Bft) SW 214 0 min 0 W/m 4,6 C -2,1 C 30,6 km/h (5 Bft)
21.12.2016 22:48 5,4 C 94 % 1022,2 hPa 0,0 l/m 17,6 km/h (3 Bft) SW 216 0 min 0 W/m 4,5 C -1,7 C 25,7 km/h (4 Bft)
21.12.2016 22:51 5,4 C 94 % 1022,3 hPa 0,0 l/m 15,3 km/h (3 Bft) W-SW 247 0 min 0 W/m 4,5 C -0,6 C 29,0 km/h (5 Bft)
21.12.2016 22:54 5,4 C 94 % 1022,3 hPa 0,0 l/m 15,8 km/h (3 Bft) S-SW 195 0 min 0 W/m 4,5 C -0,8 C 24,1 km/h (4 Bft)
21.12.2016 22:57 5,4 C 95 % 1022,2 hPa 0,0 l/m 15,1 km/h (3 Bft) SW 223 0 min 0 W/m 4,7 C -0,5 C 25,7 km/h (4 Bft)
21.12.2016 23:00 5,4 C 95 % 1022,2 hPa 0,0 l/m 15,9 km/h (3 Bft) SW 224 0 min 0 W/m 4,7 C -0,9 C 24,1 km/h (4 Bft)
21.12.2016 23:03 5,4 C 95 % 1022,2 hPa 0,0 l/m 15,1 km/h (3 Bft) S 176 0 min 0 W/m 4,7 C -0,5 C 24,1 km/h (4 Bft)
21.12.2016 23:06 5,3 C 95 % 1022,2 hPa 0,0 l/m 14,9 km/h (3 Bft) S-SW 198 0 min 0 W/m 4,6 C -0,5 C 22,5 km/h (4 Bft)
21.12.2016 23:09 5,3 C 95 % 1022,2 hPa 0,0 l/m 15,4 km/h (3 Bft) S-SW 199 0 min 0 W/m 4,6 C -0,8 C 27,4 km/h (5 Bft)
21.12.2016 23:12 5,3 C 95 % 1022,2 hPa 0,0 l/m 13,7 km/h (3 Bft) S-SO 167 0 min 0 W/m 4,6 C 0,1 C 19,3 km/h (3 Bft)
21.12.2016 23:15 5,3 C 95 % 1022,2 hPa 0,0 l/m 18,0 km/h (3 Bft) SW 217 0 min 0 W/m 4,6 C -2,0 C 30,6 km/h (5 Bft)
21.12.2016 23:18 5,3 C 95 % 1022,2 hPa 0,0 l/m 17,5 km/h (3 Bft) S 182 0 min 0 W/m 4,6 C -1,7 C 30,6 km/h (5 Bft)
21.12.2016 23:21 5,3 C 95 % 1022,3 hPa 0,0 l/m 17,0 km/h (3 Bft) S-SW 200 0 min 0 W/m 4,6 C -1,5 C 29,0 km/h (5 Bft)
21.12.2016 23:24 5,3 C 95 % 1022,2 hPa 0,0 l/m 12,8 km/h (3 Bft) SW 216 0 min 0 W/m 4,6 C 0,6 C 19,3 km/h (3 Bft)
21.12.2016 23:27 5,3 C 95 % 1022,2 hPa 0,2 l/m 16,2 km/h (3 Bft) S-SW 192 0 min 0 W/m 4,6 C -1,1 C 24,1 km/h (4 Bft)
21.12.2016 23:30 5,3 C 95 % 1022,2 hPa 0,0 l/m 15,2 km/h (3 Bft) SW 216 0 min 0 W/m 4,6 C -0,7 C 24,1 km/h (4 Bft)
21.12.2016 23:33 5,2 C 95 % 1022,2 hPa 0,0 l/m 17,9 km/h (3 Bft) SW 226 0 min 0 W/m 4,5 C -2,0 C 27,4 km/h (5 Bft)
21.12.2016 23:36 5,2 C 96 % 1022,2 hPa 0,0 l/m 14,9 km/h (3 Bft) SW 217 0 min 0 W/m 4,6 C -0,6 C 24,1 km/h (4 Bft)
21.12.2016 23:39 5,2 C 96 % 1022,2 hPa 0,0 l/m 16,4 km/h (3 Bft) SW 223 0 min 0 W/m 4,6 C -1,4 C 27,4 km/h (5 Bft)
21.12.2016 23:42 5,2 C 96 % 1022,1 hPa 0,0 l/m 15,4 km/h (3 Bft) SW 215 0 min 0 W/m 4,6 C -0,9 C 27,4 km/h (5 Bft)
21.12.2016 23:45 5,2 C 96 % 1022,1 hPa 0,2 l/m 18,1 km/h (3 Bft) SW 227 0 min 0 W/m 4,6 C -2,1 C 25,7 km/h (4 Bft)
21.12.2016 23:48 5,2 C 96 % 1022,1 hPa 0,0 l/m 14,2 km/h (3 Bft) S 170 0 min 0 W/m 4,6 C -0,3 C 25,7 km/h (4 Bft)
21.12.2016 23:51 5,2 C 96 % 1022,1 hPa 0,0 l/m 17,5 km/h (3 Bft) S-SW 193 0 min 0 W/m 4,6 C -1,9 C 27,4 km/h (5 Bft)
21.12.2016 23:54 5,1 C 96 % 1022,1 hPa 0,0 l/m 13,7 km/h (3 Bft) SW 226 0 min 0 W/m 4,5 C -0,1 C 19,3 km/h (3 Bft)
21.12.2016 23:57 5,1 C 96 % 1022,1 hPa 0,0 l/m 16,8 km/h (3 Bft) SW 232 0 min 0 W/m 4,5 C -1,7 C 25,7 km/h (4 Bft)
_ Min-Zeit 03:51 12:42 12:30 - 03:00 - - - - 03:51 09:00 02:57
Minimum _ -0,6 C 88 % 1020,2 hPa - 2,3 km/h (1 Bft) - - - - -1,6 C -6,6 C 4,8 km/h (1 Bft)
_ Max-Zeit 19:42 07:21 22:42 22:33 12:21 - - 08:57 12:57 22:30 18:48 12:24
Maximum _ 6,3 C 96 % 1022,3 hPa 0,2 l/m 23,7 km/h
SW (4 Bft)
- - 3 min 130 W/m 4,7 C 1,6 C 41,8 km/h
S-SO (6 Bft)
Durchschnitt _ 3,2 C 92 % 1021,1 hPa #0,6 l/m 13,7 km/h (3 Bft) SW - #15 min. 49 W/m 2,0 C -2,0 C 23,3 km/h (4 Bft)
2016 Cux-Wetter.de -Die Nutzung der Wetterdaten nur mit ausdrcklicher Genehmigung